<?xml version="1.0" encoding="UTF-8" standalone="no" ?>
<gpx xmlns="http://www.topografix.com/GPX/1/1" xmlns:xsi="http://www.w3.org/2001/XMLSchema-instance" xsi:schemaLocation="http://www.topografix.com/GPX/1/1 http://www.topografix.com/GPX/1/1/gpx.xsd" version="1.1" creator="VisuGPX - https://www.visugpx.com">
  <metadata>
    <name>Bj Vignes du Beaujolais - 31kms 340D+</name>
  </metadata>
  <trk>
    <name><![CDATA[Bj Vignes du Beaujolais - 31]]></name>
    <trkseg>
      <trkpt lat="45.98052" lon="4.72686">
        <ele>181.637253</ele>
        <time>2019-07-24T15:26:23Z</time>
      </trkpt>
      <trkpt lat="45.98099" lon="4.72689">
        <ele>186.2</ele>
      </trkpt>
      <trkpt lat="45.98117" lon="4.72594">
        <ele>188.7</ele>
      </trkpt>
      <trkpt lat="45.9813" lon="4.72593">
        <ele>188.9</ele>
      </trkpt>
      <trkpt lat="45.98198" lon="4.72564">
        <ele>187.2</ele>
      </trkpt>
      <trkpt lat="45.98231" lon="4.72562">
        <ele>185.9</ele>
      </trkpt>
      <trkpt lat="45.98272" lon="4.72573">
        <ele>186.2</ele>
      </trkpt>
      <trkpt lat="45.98391" lon="4.7227">
        <ele>189.4</ele>
      </trkpt>
      <trkpt lat="45.98161" lon="4.72129">
        <ele>190</ele>
      </trkpt>
      <trkpt lat="45.97996" lon="4.7208">
        <ele>190.1</ele>
      </trkpt>
      <trkpt lat="45.97902" lon="4.72077">
        <ele>192.2</ele>
      </trkpt>
      <trkpt lat="45.97878" lon="4.72067">
        <ele>193.3</ele>
      </trkpt>
      <trkpt lat="45.9788" lon="4.71976">
        <ele>190</ele>
      </trkpt>
      <trkpt lat="45.97879" lon="4.71929">
        <ele>192.4</ele>
      </trkpt>
      <trkpt lat="45.97881" lon="4.71902">
        <ele>194.9</ele>
      </trkpt>
      <trkpt lat="45.97892" lon="4.71895">
        <ele>195</ele>
      </trkpt>
      <trkpt lat="45.97898" lon="4.71871">
        <ele>195.2</ele>
      </trkpt>
      <trkpt lat="45.97897" lon="4.71862">
        <ele>192.791</ele>
        <time>2019-07-24T15:29:54Z</time>
      </trkpt>
      <trkpt lat="45.97894" lon="4.71857">
        <ele>192.861145</ele>
        <time>2019-07-24T15:29:56Z</time>
      </trkpt>
      <trkpt lat="45.97891" lon="4.7185">
        <ele>192.983749</ele>
        <time>2019-07-24T15:29:59Z</time>
      </trkpt>
      <trkpt lat="45.97891" lon="4.71843">
        <ele>193.092499</ele>
        <time>2019-07-24T15:30:02Z</time>
      </trkpt>
      <trkpt lat="45.97891" lon="4.71828">
        <ele>193.271255</ele>
        <time>2019-07-24T15:30:08Z</time>
      </trkpt>
      <trkpt lat="45.9789" lon="4.71806">
        <ele>193.608749</ele>
        <time>2019-07-24T15:30:12Z</time>
      </trkpt>
      <trkpt lat="45.97888" lon="4.7178">
        <ele>193.837494</ele>
        <time>2019-07-24T15:30:14Z</time>
      </trkpt>
      <trkpt lat="45.97891" lon="4.71768">
        <ele>194.300903</ele>
        <time>2019-07-24T15:30:19Z</time>
      </trkpt>
      <trkpt lat="45.97899" lon="4.71753">
        <ele>194.389496</ele>
        <time>2019-07-24T15:30:20Z</time>
      </trkpt>
      <trkpt lat="45.979" lon="4.71733">
        <ele>194.782425</ele>
        <time>2019-07-24T15:30:23Z</time>
      </trkpt>
      <trkpt lat="45.9789" lon="4.71718">
        <ele>195.145813</ele>
        <time>2019-07-24T15:30:25Z</time>
      </trkpt>
      <trkpt lat="45.97871" lon="4.71712">
        <ele>195.723755</ele>
        <time>2019-07-24T15:30:28Z</time>
      </trkpt>
      <trkpt lat="45.97872" lon="4.71706">
        <ele>195.898758</ele>
        <time>2019-07-24T15:30:29Z</time>
      </trkpt>
      <trkpt lat="45.9787" lon="4.71686">
        <ele>196.199997</ele>
        <time>2019-07-24T15:30:31Z</time>
      </trkpt>
      <trkpt lat="45.97881" lon="4.71644">
        <ele>197.164993</ele>
        <time>2019-07-24T15:30:38Z</time>
      </trkpt>
      <trkpt lat="45.97881" lon="4.71575">
        <ele>198.698746</ele>
        <time>2019-07-24T15:30:45Z</time>
      </trkpt>
      <trkpt lat="45.97879" lon="4.71558">
        <ele>199.175003</ele>
        <time>2019-07-24T15:30:49Z</time>
      </trkpt>
      <trkpt lat="45.97855" lon="4.7141">
        <ele>203.221375</ele>
        <time>2019-07-24T15:31:11Z</time>
      </trkpt>
      <trkpt lat="45.9785" lon="4.71355">
        <ele>204.082306</ele>
        <time>2019-07-24T15:31:20Z</time>
      </trkpt>
      <trkpt lat="45.97849" lon="4.7131">
        <ele>204.71875</ele>
        <time>2019-07-24T15:31:34Z</time>
      </trkpt>
      <trkpt lat="45.97851" lon="4.71272">
        <ele>205.286255</ele>
        <time>2019-07-24T15:31:43Z</time>
      </trkpt>
      <trkpt lat="45.97852" lon="4.71154">
        <ele>208.455307</ele>
        <time>2019-07-24T15:32:10Z</time>
      </trkpt>
      <trkpt lat="45.97829" lon="4.70976">
        <ele>214.872849</ele>
        <time>2019-07-24T15:32:45Z</time>
      </trkpt>
      <trkpt lat="45.97827" lon="4.70951">
        <ele>215.84375</ele>
        <time>2019-07-24T15:32:51Z</time>
      </trkpt>
      <trkpt lat="45.97825" lon="4.7094">
        <ele>216.089188</ele>
        <time>2019-07-24T15:32:53Z</time>
      </trkpt>
      <trkpt lat="45.97834" lon="4.70934">
        <ele>216.26207</ele>
        <time>2019-07-24T15:32:56Z</time>
      </trkpt>
      <trkpt lat="45.97832" lon="4.7091">
        <ele>216.53862</ele>
        <time>2019-07-24T15:33:00Z</time>
      </trkpt>
      <trkpt lat="45.97823" lon="4.70906">
        <ele>216.986343</ele>
        <time>2019-07-24T15:33:05Z</time>
      </trkpt>
      <trkpt lat="45.97819" lon="4.70877">
        <ele>217.326248</ele>
        <time>2019-07-24T15:33:11Z</time>
      </trkpt>
      <trkpt lat="45.97815" lon="4.70842">
        <ele>218.241257</ele>
        <time>2019-07-24T15:33:25Z</time>
      </trkpt>
      <trkpt lat="45.97801" lon="4.70794">
        <ele>218.759903</ele>
        <time>2019-07-24T15:35:42Z</time>
      </trkpt>
      <trkpt lat="45.97806" lon="4.70782">
        <ele>220.8</ele>
      </trkpt>
      <trkpt lat="45.97807" lon="4.70769">
        <ele>218.926651</ele>
        <time>2019-07-24T15:35:48Z</time>
      </trkpt>
      <trkpt lat="45.97797" lon="4.70756">
        <ele>219.024994</ele>
        <time>2019-07-24T15:35:53Z</time>
      </trkpt>
      <trkpt lat="45.97789" lon="4.70758">
        <ele>221.4</ele>
      </trkpt>
      <trkpt lat="45.97789" lon="4.7073">
        <ele>219.273743</ele>
        <time>2019-07-24T15:35:56Z</time>
      </trkpt>
      <trkpt lat="45.97789" lon="4.70706">
        <ele>219.952499</ele>
        <time>2019-07-24T15:36:03Z</time>
      </trkpt>
      <trkpt lat="45.9779" lon="4.70665">
        <ele>220.288422</ele>
        <time>2019-07-24T15:36:07Z</time>
      </trkpt>
      <trkpt lat="45.97791" lon="4.70598">
        <ele>221.602081</ele>
        <time>2019-07-24T15:36:18Z</time>
      </trkpt>
      <trkpt lat="45.97792" lon="4.70517">
        <ele>223.3</ele>
      </trkpt>
      <trkpt lat="45.97795" lon="4.70477">
        <ele>223.903748</ele>
        <time>2019-07-24T15:36:35Z</time>
      </trkpt>
      <trkpt lat="45.97803" lon="4.7042">
        <ele>222.897247</ele>
        <time>2019-07-24T15:36:42Z</time>
      </trkpt>
      <trkpt lat="45.97805" lon="4.70388">
        <ele>222.612289</ele>
        <time>2019-07-24T15:36:46Z</time>
      </trkpt>
      <trkpt lat="45.97812" lon="4.70345">
        <ele>222.240005</ele>
        <time>2019-07-24T15:36:53Z</time>
      </trkpt>
      <trkpt lat="45.97819" lon="4.70234">
        <ele>222.229996</ele>
        <time>2019-07-24T15:37:04Z</time>
      </trkpt>
      <trkpt lat="45.97818" lon="4.70203">
        <ele>221.897644</ele>
        <time>2019-07-24T15:37:08Z</time>
      </trkpt>
      <trkpt lat="45.97819" lon="4.7015">
        <ele>221.271255</ele>
        <time>2019-07-24T15:37:15Z</time>
      </trkpt>
      <trkpt lat="45.97819" lon="4.70122">
        <ele>220.933746</ele>
        <time>2019-07-24T15:37:18Z</time>
      </trkpt>
      <trkpt lat="45.97817" lon="4.70072">
        <ele>219.602493</ele>
        <time>2019-07-24T15:37:24Z</time>
      </trkpt>
      <trkpt lat="45.97825" lon="4.70047">
        <ele>218.944992</ele>
        <time>2019-07-24T15:37:26Z</time>
      </trkpt>
      <trkpt lat="45.97832" lon="4.70028">
        <ele>218.092499</ele>
        <time>2019-07-24T15:37:28Z</time>
      </trkpt>
      <trkpt lat="45.97843" lon="4.70011">
        <ele>217.022507</ele>
        <time>2019-07-24T15:37:30Z</time>
      </trkpt>
      <trkpt lat="45.97877" lon="4.69973">
        <ele>215.5</ele>
      </trkpt>
      <trkpt lat="45.97926" lon="4.69913">
        <ele>211.157501</ele>
        <time>2019-07-24T15:37:41Z</time>
      </trkpt>
      <trkpt lat="45.97942" lon="4.69888">
        <ele>210.110794</ele>
        <time>2019-07-24T15:37:43Z</time>
      </trkpt>
      <trkpt lat="45.97975" lon="4.69843">
        <ele>208.420242</ele>
        <time>2019-07-24T15:37:47Z</time>
      </trkpt>
      <trkpt lat="45.97984" lon="4.69833">
        <ele>208.119858</ele>
        <time>2019-07-24T15:37:48Z</time>
      </trkpt>
      <trkpt lat="45.97993" lon="4.69829">
        <ele>207.938751</ele>
        <time>2019-07-24T15:37:49Z</time>
      </trkpt>
      <trkpt lat="45.98003" lon="4.69826">
        <ele>207.747498</ele>
        <time>2019-07-24T15:37:50Z</time>
      </trkpt>
      <trkpt lat="45.98013" lon="4.69822">
        <ele>207.3</ele>
      </trkpt>
      <trkpt lat="45.98023" lon="4.69832">
        <ele>207.691254</ele>
        <time>2019-07-24T15:37:52Z</time>
      </trkpt>
      <trkpt lat="45.98034" lon="4.69821">
        <ele>207.559998</ele>
        <time>2019-07-24T15:37:53Z</time>
      </trkpt>
      <trkpt lat="45.98035" lon="4.69812">
        <ele>207.286255</ele>
        <time>2019-07-24T15:37:54Z</time>
      </trkpt>
      <trkpt lat="45.98031" lon="4.69803">
        <ele>206.858749</ele>
        <time>2019-07-24T15:37:55Z</time>
      </trkpt>
      <trkpt lat="45.9805" lon="4.69768">
        <ele>205.765594</ele>
        <time>2019-07-24T15:37:57Z</time>
      </trkpt>
      <trkpt lat="45.98076" lon="4.69731">
        <ele>204.266388</ele>
        <time>2019-07-24T15:38:00Z</time>
      </trkpt>
      <trkpt lat="45.98109" lon="4.6967">
        <ele>199.785004</ele>
        <time>2019-07-24T15:38:08Z</time>
      </trkpt>
      <trkpt lat="45.98123" lon="4.69629">
        <ele>197.588745</ele>
        <time>2019-07-24T15:38:11Z</time>
      </trkpt>
      <trkpt lat="45.98145" lon="4.69549">
        <ele>193.187866</ele>
        <time>2019-07-24T15:38:17Z</time>
      </trkpt>
      <trkpt lat="45.98152" lon="4.69527">
        <ele>192.374969</ele>
        <time>2019-07-24T15:38:19Z</time>
      </trkpt>
      <trkpt lat="45.98162" lon="4.69513">
        <ele>192.166382</ele>
        <time>2019-07-24T15:38:20Z</time>
      </trkpt>
      <trkpt lat="45.9817" lon="4.69512">
        <ele>194.4</ele>
      </trkpt>
      <trkpt lat="45.98176" lon="4.69507">
        <ele>191.47081</ele>
        <time>2019-07-24T15:38:23Z</time>
      </trkpt>
      <trkpt lat="45.98184" lon="4.69488">
        <ele>191.202301</ele>
        <time>2019-07-24T15:38:25Z</time>
      </trkpt>
      <trkpt lat="45.98181" lon="4.69483">
        <ele>191.121429</ele>
        <time>2019-07-24T15:38:26Z</time>
      </trkpt>
      <trkpt lat="45.98176" lon="4.69471">
        <ele>191.16835</ele>
        <time>2019-07-24T15:38:29Z</time>
      </trkpt>
      <trkpt lat="45.98182" lon="4.69443">
        <ele>191.40274</ele>
        <time>2019-07-24T15:38:31Z</time>
      </trkpt>
      <trkpt lat="45.9819" lon="4.69399">
        <ele>191.908707</ele>
        <time>2019-07-24T15:38:36Z</time>
      </trkpt>
      <trkpt lat="45.98199" lon="4.6936">
        <ele>192.889023</ele>
        <time>2019-07-24T15:38:42Z</time>
      </trkpt>
      <trkpt lat="45.98203" lon="4.69344">
        <ele>193.415451</ele>
        <time>2019-07-24T15:38:44Z</time>
      </trkpt>
      <trkpt lat="45.98207" lon="4.69339">
        <ele>193.647644</ele>
        <time>2019-07-24T15:38:45Z</time>
      </trkpt>
      <trkpt lat="45.98208" lon="4.69335">
        <ele>194.037125</ele>
        <time>2019-07-24T15:38:47Z</time>
      </trkpt>
      <trkpt lat="45.98208" lon="4.69327">
        <ele>194.247375</ele>
        <time>2019-07-24T15:40:46Z</time>
      </trkpt>
      <trkpt lat="45.98212" lon="4.69302">
        <ele>194.702698</ele>
        <time>2019-07-24T15:40:49Z</time>
      </trkpt>
      <trkpt lat="45.98217" lon="4.69275">
        <ele>195.616425</ele>
        <time>2019-07-24T15:40:54Z</time>
      </trkpt>
      <trkpt lat="45.98227" lon="4.69224">
        <ele>197.241257</ele>
        <time>2019-07-24T15:41:09Z</time>
      </trkpt>
      <trkpt lat="45.9823" lon="4.69178">
        <ele>198.618332</ele>
        <time>2019-07-24T15:41:15Z</time>
      </trkpt>
      <trkpt lat="45.9823" lon="4.6915">
        <ele>199.720901</ele>
        <time>2019-07-24T15:41:20Z</time>
      </trkpt>
      <trkpt lat="45.98227" lon="4.69135">
        <ele>200.177505</ele>
        <time>2019-07-24T15:41:25Z</time>
      </trkpt>
      <trkpt lat="45.98219" lon="4.69112">
        <ele>200.361252</ele>
        <time>2019-07-24T15:41:30Z</time>
      </trkpt>
      <trkpt lat="45.98196" lon="4.69047">
        <ele>200.817673</ele>
        <time>2019-07-24T15:41:42Z</time>
      </trkpt>
      <trkpt lat="45.9819" lon="4.69029">
        <ele>200.885361</ele>
        <time>2019-07-24T15:41:45Z</time>
      </trkpt>
      <trkpt lat="45.98187" lon="4.69022">
        <ele>200.867691</ele>
        <time>2019-07-24T15:41:47Z</time>
      </trkpt>
      <trkpt lat="45.98189" lon="4.68999">
        <ele>201.048004</ele>
        <time>2019-07-24T15:41:50Z</time>
      </trkpt>
      <trkpt lat="45.98191" lon="4.68979">
        <ele>201.317368</ele>
        <time>2019-07-24T15:41:52Z</time>
      </trkpt>
      <trkpt lat="45.98193" lon="4.68949">
        <ele>201.824997</ele>
        <time>2019-07-24T15:41:54Z</time>
      </trkpt>
      <trkpt lat="45.982" lon="4.68883">
        <ele>203.902481</ele>
        <time>2019-07-24T15:42:05Z</time>
      </trkpt>
      <trkpt lat="45.98202" lon="4.68866">
        <ele>203.3</ele>
      </trkpt>
      <trkpt lat="45.98202" lon="4.68818">
        <ele>204.3</ele>
      </trkpt>
      <trkpt lat="45.98208" lon="4.6877">
        <ele>205.91626</ele>
        <time>2019-07-24T15:42:20Z</time>
      </trkpt>
      <trkpt lat="45.98229" lon="4.68659">
        <ele>208.402496</ele>
        <time>2019-07-24T15:42:38Z</time>
      </trkpt>
      <trkpt lat="45.98233" lon="4.68641">
        <ele>209.222504</ele>
        <time>2019-07-24T15:42:42Z</time>
      </trkpt>
      <trkpt lat="45.98234" lon="4.6863">
        <ele>210.232498</ele>
        <time>2019-07-24T15:42:47Z</time>
      </trkpt>
      <trkpt lat="45.98232" lon="4.68606">
        <ele>210.903748</ele>
        <time>2019-07-24T15:42:51Z</time>
      </trkpt>
      <trkpt lat="45.98229" lon="4.68558">
        <ele>212.763031</ele>
        <time>2019-07-24T15:43:03Z</time>
      </trkpt>
      <trkpt lat="45.98227" lon="4.6852">
        <ele>215.179474</ele>
        <time>2019-07-24T15:43:13Z</time>
      </trkpt>
      <trkpt lat="45.98229" lon="4.68454">
        <ele>218.88147</ele>
        <time>2019-07-24T15:43:30Z</time>
      </trkpt>
      <trkpt lat="45.98231" lon="4.68408">
        <ele>220.490005</ele>
        <time>2019-07-24T15:43:42Z</time>
      </trkpt>
      <trkpt lat="45.9823" lon="4.68344">
        <ele>222.983398</ele>
        <time>2019-07-24T15:44:02Z</time>
      </trkpt>
      <trkpt lat="45.98226" lon="4.68265">
        <ele>225.151031</ele>
        <time>2019-07-24T15:44:23Z</time>
      </trkpt>
      <trkpt lat="45.98224" lon="4.68222">
        <ele>226.226532</ele>
        <time>2019-07-24T15:44:34Z</time>
      </trkpt>
      <trkpt lat="45.98222" lon="4.68196">
        <ele>226.746872</ele>
        <time>2019-07-24T15:44:43Z</time>
      </trkpt>
      <trkpt lat="45.98221" lon="4.6818">
        <ele>226.985321</ele>
        <time>2019-07-24T15:44:54Z</time>
      </trkpt>
      <trkpt lat="45.98222" lon="4.68102">
        <ele>229.3</ele>
      </trkpt>
      <trkpt lat="45.98217" lon="4.6806">
        <ele>229.3</ele>
      </trkpt>
      <trkpt lat="45.98218" lon="4.68036">
        <ele>227.33403</ele>
        <time>2019-07-24T15:45:29Z</time>
      </trkpt>
      <trkpt lat="45.98217" lon="4.68015">
        <ele>228.157501</ele>
        <time>2019-07-24T15:45:33Z</time>
      </trkpt>
      <trkpt lat="45.98218" lon="4.6799">
        <ele>228.872986</ele>
        <time>2019-07-24T15:45:38Z</time>
      </trkpt>
      <trkpt lat="45.98215" lon="4.67913">
        <ele>235.5</ele>
      </trkpt>
      <trkpt lat="45.98211" lon="4.67866">
        <ele>237.478638</ele>
        <time>2019-07-24T15:46:12Z</time>
      </trkpt>
      <trkpt lat="45.98213" lon="4.67835">
        <ele>238.419998</ele>
        <time>2019-07-24T15:46:17Z</time>
      </trkpt>
      <trkpt lat="45.98218" lon="4.67812">
        <ele>239.645081</ele>
        <time>2019-07-24T15:46:22Z</time>
      </trkpt>
      <trkpt lat="45.98228" lon="4.67762">
        <ele>241.592636</ele>
        <time>2019-07-24T15:46:38Z</time>
      </trkpt>
      <trkpt lat="45.98228" lon="4.67742">
        <ele>241.872208</ele>
        <time>2019-07-24T15:46:43Z</time>
      </trkpt>
      <trkpt lat="45.98228" lon="4.67719">
        <ele>242.100769</ele>
        <time>2019-07-24T15:46:49Z</time>
      </trkpt>
      <trkpt lat="45.98228" lon="4.67698">
        <ele>242.345291</ele>
        <time>2019-07-24T15:46:55Z</time>
      </trkpt>
      <trkpt lat="45.98229" lon="4.67686">
        <ele>242.609283</ele>
        <time>2019-07-24T15:47:01Z</time>
      </trkpt>
      <trkpt lat="45.98222" lon="4.67645">
        <ele>246.027237</ele>
        <time>2019-07-24T15:47:14Z</time>
      </trkpt>
      <trkpt lat="45.98216" lon="4.67597">
        <ele>248.822281</ele>
        <time>2019-07-24T15:47:27Z</time>
      </trkpt>
      <trkpt lat="45.98212" lon="4.67573">
        <ele>248.875214</ele>
        <time>2019-07-24T15:47:36Z</time>
      </trkpt>
      <trkpt lat="45.9821" lon="4.6756">
        <ele>248.923752</ele>
        <time>2019-07-24T15:47:44Z</time>
      </trkpt>
      <trkpt lat="45.98209" lon="4.67549">
        <ele>251</ele>
      </trkpt>
      <trkpt lat="45.98208" lon="4.67536">
        <ele>248.91687</ele>
        <time>2019-07-24T15:47:59Z</time>
      </trkpt>
      <trkpt lat="45.98205" lon="4.67492">
        <ele>249.289459</ele>
        <time>2019-07-24T15:48:13Z</time>
      </trkpt>
      <trkpt lat="45.98204" lon="4.67474">
        <ele>249.330032</ele>
        <time>2019-07-24T15:48:17Z</time>
      </trkpt>
      <trkpt lat="45.98221" lon="4.67458">
        <ele>249.00499</ele>
        <time>2019-07-24T15:48:41Z</time>
      </trkpt>
      <trkpt lat="45.98233" lon="4.67416">
        <ele>248.044724</ele>
        <time>2019-07-24T15:48:46Z</time>
      </trkpt>
      <trkpt lat="45.98243" lon="4.67367">
        <ele>246.002853</ele>
        <time>2019-07-24T15:48:52Z</time>
      </trkpt>
      <trkpt lat="45.98258" lon="4.67276">
        <ele>241.412506</ele>
        <time>2019-07-24T15:49:02Z</time>
      </trkpt>
      <trkpt lat="45.98274" lon="4.67188">
        <ele>239.792755</ele>
        <time>2019-07-24T15:49:12Z</time>
      </trkpt>
      <trkpt lat="45.9828" lon="4.67146">
        <ele>239.900406</ele>
        <time>2019-07-24T15:49:15Z</time>
      </trkpt>
      <trkpt lat="45.98286" lon="4.67111">
        <ele>238.292801</ele>
        <time>2019-07-24T15:49:19Z</time>
      </trkpt>
      <trkpt lat="45.98286" lon="4.67087">
        <ele>237.619843</ele>
        <time>2019-07-24T15:49:21Z</time>
      </trkpt>
      <trkpt lat="45.98285" lon="4.67065">
        <ele>237.084396</ele>
        <time>2019-07-24T15:49:23Z</time>
      </trkpt>
      <trkpt lat="45.98283" lon="4.67018">
        <ele>236.376007</ele>
        <time>2019-07-24T15:49:27Z</time>
      </trkpt>
      <trkpt lat="45.9828" lon="4.66932">
        <ele>235.459381</ele>
        <time>2019-07-24T15:49:35Z</time>
      </trkpt>
      <trkpt lat="45.98276" lon="4.66838">
        <ele>234.897095</ele>
        <time>2019-07-24T15:49:46Z</time>
      </trkpt>
      <trkpt lat="45.98278" lon="4.66797">
        <ele>234.78067</ele>
        <time>2019-07-24T15:49:49Z</time>
      </trkpt>
      <trkpt lat="45.98292" lon="4.66748">
        <ele>233.864502</ele>
        <time>2019-07-24T15:49:54Z</time>
      </trkpt>
      <trkpt lat="45.98301" lon="4.66715">
        <ele>233.219269</ele>
        <time>2019-07-24T15:49:56Z</time>
      </trkpt>
      <trkpt lat="45.98313" lon="4.66693">
        <ele>230.835007</ele>
        <time>2019-07-24T15:50:00Z</time>
      </trkpt>
      <trkpt lat="45.98319" lon="4.66683">
        <ele>232.1</ele>
      </trkpt>
      <trkpt lat="45.98333" lon="4.66655">
        <ele>228.455002</ele>
        <time>2019-07-24T15:50:03Z</time>
      </trkpt>
      <trkpt lat="45.9835" lon="4.66629">
        <ele>226.601563</ele>
        <time>2019-07-24T15:50:05Z</time>
      </trkpt>
      <trkpt lat="45.98364" lon="4.6662">
        <ele>225.505219</ele>
        <time>2019-07-24T15:50:06Z</time>
      </trkpt>
      <trkpt lat="45.98378" lon="4.66611">
        <ele>223.079086</ele>
        <time>2019-07-24T15:50:08Z</time>
      </trkpt>
      <trkpt lat="45.98406" lon="4.66595">
        <ele>221.931351</ele>
        <time>2019-07-24T15:50:09Z</time>
      </trkpt>
      <trkpt lat="45.98426" lon="4.66591">
        <ele>219.734207</ele>
        <time>2019-07-24T15:50:12Z</time>
      </trkpt>
      <trkpt lat="45.98458" lon="4.66584">
        <ele>218.587494</ele>
        <time>2019-07-24T15:50:14Z</time>
      </trkpt>
      <trkpt lat="45.9849" lon="4.66578">
        <ele>217.250931</ele>
        <time>2019-07-24T15:50:19Z</time>
      </trkpt>
      <trkpt lat="45.98498" lon="4.66569">
        <ele>217.670242</ele>
        <time>2019-07-24T15:50:21Z</time>
      </trkpt>
      <trkpt lat="45.98505" lon="4.66559">
        <ele>217.943802</ele>
        <time>2019-07-24T15:50:23Z</time>
      </trkpt>
      <trkpt lat="45.98521" lon="4.66536">
        <ele>218.276306</ele>
        <time>2019-07-24T15:50:25Z</time>
      </trkpt>
      <trkpt lat="45.98527" lon="4.66529">
        <ele>218.991806</ele>
        <time>2019-07-24T15:50:27Z</time>
      </trkpt>
      <trkpt lat="45.98539" lon="4.66523">
        <ele>219.932907</ele>
        <time>2019-07-24T15:50:29Z</time>
      </trkpt>
      <trkpt lat="45.98561" lon="4.66508">
        <ele>225.081451</ele>
        <time>2019-07-24T15:50:40Z</time>
      </trkpt>
      <trkpt lat="45.98592" lon="4.66492">
        <ele>230.299057</ele>
        <time>2019-07-24T15:51:02Z</time>
      </trkpt>
      <trkpt lat="45.98621" lon="4.66494">
        <ele>233.5</ele>
      </trkpt>
      <trkpt lat="45.98664" lon="4.66472">
        <ele>236.172333</ele>
        <time>2019-07-24T15:51:30Z</time>
      </trkpt>
      <trkpt lat="45.98671" lon="4.66475">
        <ele>240.5</ele>
      </trkpt>
      <trkpt lat="45.98683" lon="4.66456">
        <ele>237.375381</ele>
        <time>2019-07-24T15:51:36Z</time>
      </trkpt>
      <trkpt lat="45.98718" lon="4.66424">
        <ele>241.365005</ele>
        <time>2019-07-24T15:52:01Z</time>
      </trkpt>
      <trkpt lat="45.98721" lon="4.66411">
        <ele>242.190002</ele>
        <time>2019-07-24T15:52:09Z</time>
      </trkpt>
      <trkpt lat="45.98729" lon="4.6639">
        <ele>248.4</ele>
      </trkpt>
      <trkpt lat="45.98732" lon="4.66377">
        <ele>243.295212</ele>
        <time>2019-07-24T15:52:23Z</time>
      </trkpt>
      <trkpt lat="45.98734" lon="4.66361">
        <ele>243.577499</ele>
        <time>2019-07-24T15:52:30Z</time>
      </trkpt>
      <trkpt lat="45.98738" lon="4.66345">
        <ele>243.850845</ele>
        <time>2019-07-24T15:52:37Z</time>
      </trkpt>
      <trkpt lat="45.98739" lon="4.66331">
        <ele>243.965149</ele>
        <time>2019-07-24T15:52:42Z</time>
      </trkpt>
      <trkpt lat="45.98756" lon="4.66326">
        <ele>243.071701</ele>
        <time>2019-07-24T15:52:53Z</time>
      </trkpt>
      <trkpt lat="45.98767" lon="4.66323">
        <ele>248.8</ele>
      </trkpt>
      <trkpt lat="45.98809" lon="4.66312">
        <ele>240.887115</ele>
        <time>2019-07-24T15:53:01Z</time>
      </trkpt>
      <trkpt lat="45.9883" lon="4.66289">
        <ele>240.200851</ele>
        <time>2019-07-24T15:53:03Z</time>
      </trkpt>
      <trkpt lat="45.98851" lon="4.66273">
        <ele>239.12558</ele>
        <time>2019-07-24T15:53:07Z</time>
      </trkpt>
      <trkpt lat="45.9888" lon="4.66278">
        <ele>239.555145</ele>
        <time>2019-07-24T15:53:09Z</time>
      </trkpt>
      <trkpt lat="45.98914" lon="4.6628">
        <ele>239.890656</ele>
        <time>2019-07-24T15:53:13Z</time>
      </trkpt>
      <trkpt lat="45.98929" lon="4.66283">
        <ele>242.076294</ele>
        <time>2019-07-24T15:53:22Z</time>
      </trkpt>
      <trkpt lat="45.98949" lon="4.66288">
        <ele>246.219925</ele>
        <time>2019-07-24T15:53:39Z</time>
      </trkpt>
      <trkpt lat="45.98976" lon="4.66305">
        <ele>247.749207</ele>
        <time>2019-07-24T15:53:44Z</time>
      </trkpt>
      <trkpt lat="45.99023" lon="4.66335">
        <ele>263.6</ele>
      </trkpt>
      <trkpt lat="45.99057" lon="4.66332">
        <ele>265.634155</ele>
        <time>2019-07-24T15:55:22Z</time>
      </trkpt>
      <trkpt lat="45.99113" lon="4.66333">
        <ele>267.029999</ele>
        <time>2019-07-24T15:55:37Z</time>
      </trkpt>
      <trkpt lat="45.99169" lon="4.66324">
        <ele>267.375</ele>
        <time>2019-07-24T15:55:44Z</time>
      </trkpt>
      <trkpt lat="45.99247" lon="4.66312">
        <ele>273</ele>
      </trkpt>
      <trkpt lat="45.99339" lon="4.66314">
        <ele>273.7</ele>
      </trkpt>
      <trkpt lat="45.99381" lon="4.66296">
        <ele>274</ele>
      </trkpt>
      <trkpt lat="45.99408" lon="4.663">
        <ele>274.899994</ele>
        <time>2019-07-24T15:57:23Z</time>
      </trkpt>
      <trkpt lat="45.99437" lon="4.66302">
        <ele>275</ele>
        <time>2019-07-24T15:57:29Z</time>
      </trkpt>
      <trkpt lat="45.99572" lon="4.66313">
        <ele>272.402832</ele>
        <time>2019-07-24T15:58:00Z</time>
      </trkpt>
      <trkpt lat="45.99584" lon="4.66314">
        <ele>272.124939</ele>
        <time>2019-07-24T15:58:39Z</time>
      </trkpt>
      <trkpt lat="45.99637" lon="4.6632">
        <ele>270.589478</ele>
        <time>2019-07-24T15:58:54Z</time>
      </trkpt>
      <trkpt lat="45.99649" lon="4.66326">
        <ele>270.163116</ele>
        <time>2019-07-24T15:59:00Z</time>
      </trkpt>
      <trkpt lat="45.99693" lon="4.66351">
        <ele>269.695007</ele>
        <time>2019-07-24T15:59:05Z</time>
      </trkpt>
      <trkpt lat="45.99721" lon="4.66368">
        <ele>269</ele>
        <time>2019-07-24T15:59:17Z</time>
      </trkpt>
      <trkpt lat="45.99762" lon="4.66392">
        <ele>267.936432</ele>
        <time>2019-07-24T15:59:23Z</time>
      </trkpt>
      <trkpt lat="45.99832" lon="4.66406">
        <ele>260.844269</ele>
        <time>2019-07-24T15:59:30Z</time>
      </trkpt>
      <trkpt lat="45.9985" lon="4.66409">
        <ele>257.978271</ele>
        <time>2019-07-24T16:01:51Z</time>
      </trkpt>
      <trkpt lat="45.99882" lon="4.66354">
        <ele>254.124481</ele>
        <time>2019-07-24T16:02:54Z</time>
      </trkpt>
      <trkpt lat="45.99911" lon="4.66303">
        <ele>251.125</ele>
        <time>2019-07-24T16:03:16Z</time>
      </trkpt>
      <trkpt lat="45.99937" lon="4.66262">
        <ele>248.477509</ele>
        <time>2019-07-24T16:03:26Z</time>
      </trkpt>
      <trkpt lat="45.99986" lon="4.66179">
        <ele>245.446396</ele>
        <time>2019-07-24T16:03:43Z</time>
      </trkpt>
      <trkpt lat="45.99993" lon="4.66172">
        <ele>244.977661</ele>
        <time>2019-07-24T16:03:46Z</time>
      </trkpt>
      <trkpt lat="45.99999" lon="4.66171">
        <ele>244.23381</ele>
        <time>2019-07-24T16:03:48Z</time>
      </trkpt>
      <trkpt lat="46.00017" lon="4.6618">
        <ele>242.117508</ele>
        <time>2019-07-24T16:03:52Z</time>
      </trkpt>
      <trkpt lat="46.00061" lon="4.66212">
        <ele>237.283844</ele>
        <time>2019-07-24T16:04:00Z</time>
      </trkpt>
      <trkpt lat="46.00083" lon="4.66226">
        <ele>235.077499</ele>
        <time>2019-07-24T16:04:04Z</time>
      </trkpt>
      <trkpt lat="46.00099" lon="4.66238">
        <ele>233.568741</ele>
        <time>2019-07-24T16:04:07Z</time>
      </trkpt>
      <trkpt lat="46.00193" lon="4.66299">
        <ele>233.354996</ele>
        <time>2019-07-24T16:04:35Z</time>
      </trkpt>
      <trkpt lat="46.002" lon="4.66301">
        <ele>234.371246</ele>
        <time>2019-07-24T16:04:39Z</time>
      </trkpt>
      <trkpt lat="46.00201" lon="4.66288">
        <ele>235.112503</ele>
        <time>2019-07-24T16:04:43Z</time>
      </trkpt>
      <trkpt lat="46.0021" lon="4.66221">
        <ele>237.441803</ele>
        <time>2019-07-24T16:04:59Z</time>
      </trkpt>
      <trkpt lat="46.00217" lon="4.66177">
        <ele>239.117218</ele>
        <time>2019-07-24T16:05:09Z</time>
      </trkpt>
      <trkpt lat="46.00228" lon="4.6609">
        <ele>243.004593</ele>
        <time>2019-07-24T16:05:27Z</time>
      </trkpt>
      <trkpt lat="46.00229" lon="4.66084">
        <ele>243.34256</ele>
        <time>2019-07-24T16:05:29Z</time>
      </trkpt>
      <trkpt lat="46.00231" lon="4.66081">
        <ele>244.134125</ele>
        <time>2019-07-24T16:05:32Z</time>
      </trkpt>
      <trkpt lat="46.00271" lon="4.66093">
        <ele>252.421448</ele>
        <time>2019-07-24T16:05:57Z</time>
      </trkpt>
      <trkpt lat="46.00274" lon="4.66099">
        <ele>253.210495</ele>
        <time>2019-07-24T16:06:01Z</time>
      </trkpt>
      <trkpt lat="46.00277" lon="4.66174">
        <ele>253.581696</ele>
        <time>2019-07-24T16:06:31Z</time>
      </trkpt>
      <trkpt lat="46.00281" lon="4.66209">
        <ele>253.854095</ele>
        <time>2019-07-24T16:06:46Z</time>
      </trkpt>
      <trkpt lat="46.00296" lon="4.66266">
        <ele>255.492355</ele>
        <time>2019-07-24T16:07:12Z</time>
      </trkpt>
      <trkpt lat="46.00298" lon="4.66277">
        <ele>256.128906</ele>
        <time>2019-07-24T16:07:17Z</time>
      </trkpt>
      <trkpt lat="46.00299" lon="4.66375">
        <ele>258.399994</ele>
        <time>2019-07-24T16:07:58Z</time>
      </trkpt>
      <trkpt lat="46.00303" lon="4.66388">
        <ele>259.480011</ele>
        <time>2019-07-24T16:08:04Z</time>
      </trkpt>
      <trkpt lat="46.0031" lon="4.66399">
        <ele>261.579987</ele>
        <time>2019-07-24T16:08:13Z</time>
      </trkpt>
      <trkpt lat="46.00317" lon="4.66406">
        <ele>262.480011</ele>
        <time>2019-07-24T16:08:19Z</time>
      </trkpt>
      <trkpt lat="46.00324" lon="4.6641">
        <ele>263.119995</ele>
        <time>2019-07-24T16:08:24Z</time>
      </trkpt>
      <trkpt lat="46.00331" lon="4.66412">
        <ele>263.700012</ele>
        <time>2019-07-24T16:08:53Z</time>
      </trkpt>
      <trkpt lat="46.00335" lon="4.66404">
        <ele>264.059998</ele>
        <time>2019-07-24T16:08:54Z</time>
      </trkpt>
      <trkpt lat="46.00354" lon="4.66354">
        <ele>265.679993</ele>
        <time>2019-07-24T16:09:19Z</time>
      </trkpt>
      <trkpt lat="46.00358" lon="4.66349">
        <ele>265.980011</ele>
        <time>2019-07-24T16:09:22Z</time>
      </trkpt>
      <trkpt lat="46.00428" lon="4.66367">
        <ele>269.879944</ele>
        <time>2019-07-24T16:10:06Z</time>
      </trkpt>
      <trkpt lat="46.00444" lon="4.66367">
        <ele>270.430603</ele>
        <time>2019-07-24T16:11:50Z</time>
      </trkpt>
      <trkpt lat="46.0049" lon="4.66282">
        <ele>271.894989</ele>
        <time>2019-07-24T16:12:31Z</time>
      </trkpt>
      <trkpt lat="46.00495" lon="4.66267">
        <ele>272.017029</ele>
        <time>2019-07-24T16:12:38Z</time>
      </trkpt>
      <trkpt lat="46.00512" lon="4.66237">
        <ele>272.609436</ele>
        <time>2019-07-24T16:12:51Z</time>
      </trkpt>
      <trkpt lat="46.00515" lon="4.66226">
        <ele>272.777557</ele>
        <time>2019-07-24T16:12:55Z</time>
      </trkpt>
      <trkpt lat="46.00515" lon="4.66216">
        <ele>272.832062</ele>
        <time>2019-07-24T16:12:58Z</time>
      </trkpt>
      <trkpt lat="46.00499" lon="4.66161">
        <ele>272.119995</ele>
        <time>2019-07-24T16:13:16Z</time>
      </trkpt>
      <trkpt lat="46.00485" lon="4.66075">
        <ele>272.473755</ele>
        <time>2019-07-24T16:13:42Z</time>
      </trkpt>
      <trkpt lat="46.00478" lon="4.66046">
        <ele>272.595001</ele>
        <time>2019-07-24T16:13:50Z</time>
      </trkpt>
      <trkpt lat="46.00472" lon="4.66006">
        <ele>272.951813</ele>
        <time>2019-07-24T16:14:01Z</time>
      </trkpt>
      <trkpt lat="46.00459" lon="4.65947">
        <ele>273.255005</ele>
        <time>2019-07-24T16:14:16Z</time>
      </trkpt>
      <trkpt lat="46.00452" lon="4.65879">
        <ele>273.745758</ele>
        <time>2019-07-24T16:14:34Z</time>
      </trkpt>
      <trkpt lat="46.00454" lon="4.65846">
        <ele>274.744476</ele>
        <time>2019-07-24T16:14:43Z</time>
      </trkpt>
      <trkpt lat="46.00451" lon="4.65721">
        <ele>277.825104</ele>
        <time>2019-07-24T16:15:11Z</time>
      </trkpt>
      <trkpt lat="46.00443" lon="4.65635">
        <ele>276.994995</ele>
        <time>2019-07-24T16:15:30Z</time>
      </trkpt>
      <trkpt lat="46.00446" lon="4.65579">
        <ele>278.19751</ele>
        <time>2019-07-24T16:15:42Z</time>
      </trkpt>
      <trkpt lat="46.00465" lon="4.65515">
        <ele>282.024994</ele>
        <time>2019-07-24T16:16:04Z</time>
      </trkpt>
      <trkpt lat="46.00471" lon="4.65491">
        <ele>282.564423</ele>
        <time>2019-07-24T16:16:12Z</time>
      </trkpt>
      <trkpt lat="46.00474" lon="4.65462">
        <ele>282.948395</ele>
        <time>2019-07-24T16:17:03Z</time>
      </trkpt>
      <trkpt lat="46.00474" lon="4.65389">
        <ele>283.527496</ele>
        <time>2019-07-24T16:17:22Z</time>
      </trkpt>
      <trkpt lat="46.00475" lon="4.65338">
        <ele>283.943573</ele>
        <time>2019-07-24T16:17:36Z</time>
      </trkpt>
      <trkpt lat="46.00485" lon="4.65278">
        <ele>285.746246</ele>
        <time>2019-07-24T16:17:51Z</time>
      </trkpt>
      <trkpt lat="46.00488" lon="4.65265">
        <ele>286.450012</ele>
        <time>2019-07-24T16:17:57Z</time>
      </trkpt>
      <trkpt lat="46.00491" lon="4.65263">
        <ele>286.856262</ele>
        <time>2019-07-24T16:17:59Z</time>
      </trkpt>
      <trkpt lat="46.00507" lon="4.65272">
        <ele>289.243744</ele>
        <time>2019-07-24T16:18:07Z</time>
      </trkpt>
      <trkpt lat="46.00575" lon="4.65293">
        <ele>291.750519</ele>
        <time>2019-07-24T16:18:33Z</time>
      </trkpt>
      <trkpt lat="46.00596" lon="4.65295">
        <ele>291.395538</ele>
        <time>2019-07-24T16:18:41Z</time>
      </trkpt>
      <trkpt lat="46.0069" lon="4.65274">
        <ele>284.400818</ele>
        <time>2019-07-24T16:19:13Z</time>
      </trkpt>
      <trkpt lat="46.00712" lon="4.65265">
        <ele>282.98349</ele>
        <time>2019-07-24T16:19:20Z</time>
      </trkpt>
      <trkpt lat="46.00738" lon="4.6526">
        <ele>281.256866</ele>
        <time>2019-07-24T16:19:30Z</time>
      </trkpt>
      <trkpt lat="46.00755" lon="4.65258">
        <ele>280.724426</ele>
        <time>2019-07-24T16:19:37Z</time>
      </trkpt>
      <trkpt lat="46.00758" lon="4.65254">
        <ele>280.57843</ele>
        <time>2019-07-24T16:19:39Z</time>
      </trkpt>
      <trkpt lat="46.00759" lon="4.65236">
        <ele>280.601593</ele>
        <time>2019-07-24T16:19:43Z</time>
      </trkpt>
      <trkpt lat="46.00762" lon="4.65179">
        <ele>281.112488</ele>
        <time>2019-07-24T16:19:55Z</time>
      </trkpt>
      <trkpt lat="46.00764" lon="4.65154">
        <ele>281.522491</ele>
        <time>2019-07-24T16:19:59Z</time>
      </trkpt>
      <trkpt lat="46.00767" lon="4.65068">
        <ele>282.982269</ele>
        <time>2019-07-24T16:20:13Z</time>
      </trkpt>
      <trkpt lat="46.0077" lon="4.65061">
        <ele>283.435272</ele>
        <time>2019-07-24T16:20:17Z</time>
      </trkpt>
      <trkpt lat="46.00779" lon="4.65034">
        <ele>283.843964</ele>
        <time>2019-07-24T16:20:22Z</time>
      </trkpt>
      <trkpt lat="46.00793" lon="4.64993">
        <ele>284.015656</ele>
        <time>2019-07-24T16:20:30Z</time>
      </trkpt>
      <trkpt lat="46.00796" lon="4.64972">
        <ele>284.519989</ele>
        <time>2019-07-24T16:20:36Z</time>
      </trkpt>
      <trkpt lat="46.00799" lon="4.64929">
        <ele>285.67749</ele>
        <time>2019-07-24T16:20:45Z</time>
      </trkpt>
      <trkpt lat="46.00802" lon="4.64926">
        <ele>285.768127</ele>
        <time>2019-07-24T16:20:46Z</time>
      </trkpt>
      <trkpt lat="46.00813" lon="4.64928">
        <ele>285.689484</ele>
        <time>2019-07-24T16:20:48Z</time>
      </trkpt>
      <trkpt lat="46.00829" lon="4.64931">
        <ele>283.968719</ele>
        <time>2019-07-24T16:20:57Z</time>
      </trkpt>
      <trkpt lat="46.00883" lon="4.64952">
        <ele>283.514496</ele>
        <time>2019-07-24T16:21:02Z</time>
      </trkpt>
      <trkpt lat="46.00909" lon="4.64962">
        <ele>284.009827</ele>
        <time>2019-07-24T16:21:06Z</time>
      </trkpt>
      <trkpt lat="46.00952" lon="4.64995">
        <ele>285.243286</ele>
        <time>2019-07-24T16:21:12Z</time>
      </trkpt>
      <trkpt lat="46.00993" lon="4.6504">
        <ele>286.557739</ele>
        <time>2019-07-24T16:21:25Z</time>
      </trkpt>
      <trkpt lat="46.01013" lon="4.65046">
        <ele>287.303986</ele>
        <time>2019-07-24T16:21:31Z</time>
      </trkpt>
      <trkpt lat="46.01032" lon="4.65051">
        <ele>289.382507</ele>
        <time>2019-07-24T16:21:43Z</time>
      </trkpt>
      <trkpt lat="46.01047" lon="4.6506">
        <ele>290.07251</ele>
        <time>2019-07-24T16:21:50Z</time>
      </trkpt>
      <trkpt lat="46.01095" lon="4.65089">
        <ele>290.971252</ele>
        <time>2019-07-24T16:22:12Z</time>
      </trkpt>
      <trkpt lat="46.01109" lon="4.65097">
        <ele>290.97406</ele>
        <time>2019-07-24T16:22:17Z</time>
      </trkpt>
      <trkpt lat="46.01114" lon="4.651">
        <ele>290.739655</ele>
        <time>2019-07-24T16:22:20Z</time>
      </trkpt>
      <trkpt lat="46.01113" lon="4.65104">
        <ele>290.557068</ele>
        <time>2019-07-24T16:22:22Z</time>
      </trkpt>
      <trkpt lat="46.01101" lon="4.65158">
        <ele>288.347504</ele>
        <time>2019-07-24T16:22:34Z</time>
      </trkpt>
      <trkpt lat="46.01087" lon="4.6522">
        <ele>286.173859</ele>
        <time>2019-07-24T16:22:43Z</time>
      </trkpt>
      <trkpt lat="46.01082" lon="4.65235">
        <ele>288.5</ele>
      </trkpt>
      <trkpt lat="46.01084" lon="4.65252">
        <ele>285.779633</ele>
        <time>2019-07-24T16:22:47Z</time>
      </trkpt>
      <trkpt lat="46.01086" lon="4.65268">
        <ele>285.667511</ele>
        <time>2019-07-24T16:22:49Z</time>
      </trkpt>
      <trkpt lat="46.0111" lon="4.6535">
        <ele>284.652893</ele>
        <time>2019-07-24T16:22:59Z</time>
      </trkpt>
      <trkpt lat="46.01127" lon="4.65428">
        <ele>281.601257</ele>
        <time>2019-07-24T16:23:07Z</time>
      </trkpt>
      <trkpt lat="46.01141" lon="4.65503">
        <ele>277.549988</ele>
        <time>2019-07-24T16:23:14Z</time>
      </trkpt>
      <trkpt lat="46.01152" lon="4.65553">
        <ele>274.845001</ele>
        <time>2019-07-24T16:23:20Z</time>
      </trkpt>
      <trkpt lat="46.01159" lon="4.65564">
        <ele>274.342499</ele>
        <time>2019-07-24T16:23:22Z</time>
      </trkpt>
      <trkpt lat="46.01164" lon="4.65567">
        <ele>274.203735</ele>
        <time>2019-07-24T16:23:23Z</time>
      </trkpt>
      <trkpt lat="46.01194" lon="4.65571">
        <ele>273.243988</ele>
        <time>2019-07-24T16:23:30Z</time>
      </trkpt>
      <trkpt lat="46.01228" lon="4.65591">
        <ele>272.095978</ele>
        <time>2019-07-24T16:23:37Z</time>
      </trkpt>
      <trkpt lat="46.01234" lon="4.65594">
        <ele>272.065002</ele>
        <time>2019-07-24T16:23:38Z</time>
      </trkpt>
      <trkpt lat="46.01249" lon="4.65583">
        <ele>272.234985</ele>
        <time>2019-07-24T16:23:41Z</time>
      </trkpt>
      <trkpt lat="46.01277" lon="4.65574">
        <ele>272.916656</ele>
        <time>2019-07-24T16:23:50Z</time>
      </trkpt>
      <trkpt lat="46.013" lon="4.65573">
        <ele>272.864746</ele>
        <time>2019-07-24T16:23:53Z</time>
      </trkpt>
      <trkpt lat="46.01404" lon="4.65572">
        <ele>272.4</ele>
      </trkpt>
      <trkpt lat="46.01413" lon="4.65561">
        <ele>275.852509</ele>
        <time>2019-07-24T16:24:20Z</time>
      </trkpt>
      <trkpt lat="46.01423" lon="4.65552">
        <ele>276.307495</ele>
        <time>2019-07-24T16:24:22Z</time>
      </trkpt>
      <trkpt lat="46.01449" lon="4.65576">
        <ele>278.073761</ele>
        <time>2019-07-24T16:24:33Z</time>
      </trkpt>
      <trkpt lat="46.0148" lon="4.6558">
        <ele>279.001251</ele>
        <time>2019-07-24T16:24:40Z</time>
      </trkpt>
      <trkpt lat="46.01504" lon="4.65577">
        <ele>281.89444</ele>
        <time>2019-07-24T16:25:01Z</time>
      </trkpt>
      <trkpt lat="46.01574" lon="4.65567">
        <ele>286.845001</ele>
        <time>2019-07-24T16:25:37Z</time>
      </trkpt>
      <trkpt lat="46.01589" lon="4.65571">
        <ele>287.282501</ele>
        <time>2019-07-24T16:25:43Z</time>
      </trkpt>
      <trkpt lat="46.01613" lon="4.65579">
        <ele>288.226837</ele>
        <time>2019-07-24T16:25:52Z</time>
      </trkpt>
      <trkpt lat="46.0162" lon="4.65573">
        <ele>289.057526</ele>
        <time>2019-07-24T16:25:59Z</time>
      </trkpt>
      <trkpt lat="46.01623" lon="4.65568">
        <ele>289.424408</ele>
        <time>2019-07-24T16:26:19Z</time>
      </trkpt>
      <trkpt lat="46.01644" lon="4.65521">
        <ele>292.693756</ele>
        <time>2019-07-24T16:26:38Z</time>
      </trkpt>
      <trkpt lat="46.01663" lon="4.65482">
        <ele>295.346771</ele>
        <time>2019-07-24T16:26:59Z</time>
      </trkpt>
      <trkpt lat="46.01671" lon="4.65471">
        <ele>296.195923</ele>
        <time>2019-07-24T16:27:06Z</time>
      </trkpt>
      <trkpt lat="46.01687" lon="4.65433">
        <ele>298.688751</ele>
        <time>2019-07-24T16:27:25Z</time>
      </trkpt>
      <trkpt lat="46.01694" lon="4.65392">
        <ele>300.452515</ele>
        <time>2019-07-24T16:27:44Z</time>
      </trkpt>
      <trkpt lat="46.01696" lon="4.65376">
        <ele>300.98999</ele>
        <time>2019-07-24T16:27:51Z</time>
      </trkpt>
      <trkpt lat="46.017" lon="4.6535">
        <ele>301.920074</ele>
        <time>2019-07-24T16:28:04Z</time>
      </trkpt>
      <trkpt lat="46.01704" lon="4.65316">
        <ele>302.8862</ele>
        <time>2019-07-24T16:28:20Z</time>
      </trkpt>
      <trkpt lat="46.01714" lon="4.65268">
        <ele>304.450012</ele>
        <time>2019-07-24T16:28:42Z</time>
      </trkpt>
      <trkpt lat="46.01725" lon="4.65224">
        <ele>305.954041</ele>
        <time>2019-07-24T16:29:03Z</time>
      </trkpt>
      <trkpt lat="46.01733" lon="4.65165">
        <ele>306.986237</ele>
        <time>2019-07-24T16:29:24Z</time>
      </trkpt>
      <trkpt lat="46.01737" lon="4.65159">
        <ele>307.008972</ele>
        <time>2019-07-24T16:29:27Z</time>
      </trkpt>
      <trkpt lat="46.01794" lon="4.65109">
        <ele>305.279816</ele>
        <time>2019-07-24T16:29:57Z</time>
      </trkpt>
      <trkpt lat="46.01861" lon="4.65039">
        <ele>301.706085</ele>
        <time>2019-07-24T16:30:14Z</time>
      </trkpt>
      <trkpt lat="46.01887" lon="4.65007">
        <ele>301.399994</ele>
        <time>2019-07-24T16:30:21Z</time>
      </trkpt>
      <trkpt lat="46.0189" lon="4.65005">
        <ele>301.317505</ele>
        <time>2019-07-24T16:30:22Z</time>
      </trkpt>
      <trkpt lat="46.01892" lon="4.65009">
        <ele>301.130005</ele>
        <time>2019-07-24T16:30:23Z</time>
      </trkpt>
      <trkpt lat="46.01898" lon="4.65016">
        <ele>300.654999</ele>
        <time>2019-07-24T16:30:25Z</time>
      </trkpt>
      <trkpt lat="46.01902" lon="4.65021">
        <ele>300.274994</ele>
        <time>2019-07-24T16:30:27Z</time>
      </trkpt>
      <trkpt lat="46.019" lon="4.65051">
        <ele>299.595184</ele>
        <time>2019-07-24T16:30:35Z</time>
      </trkpt>
      <trkpt lat="46.01906" lon="4.65103">
        <ele>298.625305</ele>
        <time>2019-07-24T16:30:48Z</time>
      </trkpt>
      <trkpt lat="46.01914" lon="4.65162">
        <ele>297.11499</ele>
        <time>2019-07-24T16:30:59Z</time>
      </trkpt>
      <trkpt lat="46.01942" lon="4.65312">
        <ele>292.983734</ele>
        <time>2019-07-24T16:31:27Z</time>
      </trkpt>
      <trkpt lat="46.01954" lon="4.65359">
        <ele>291.108978</ele>
        <time>2019-07-24T16:33:07Z</time>
      </trkpt>
      <trkpt lat="46.01966" lon="4.65359">
        <ele>290.126373</ele>
        <time>2019-07-24T16:33:15Z</time>
      </trkpt>
      <trkpt lat="46.0198" lon="4.65356">
        <ele>288.998779</ele>
        <time>2019-07-24T16:33:36Z</time>
      </trkpt>
      <trkpt lat="46.02034" lon="4.65373">
        <ele>284.605072</ele>
        <time>2019-07-24T16:33:38Z</time>
      </trkpt>
      <trkpt lat="46.02036" lon="4.65378">
        <ele>284.386841</ele>
        <time>2019-07-24T16:34:02Z</time>
      </trkpt>
      <trkpt lat="46.02038" lon="4.65467">
        <ele>283.320007</ele>
        <time>2019-07-24T16:34:04Z</time>
      </trkpt>
      <trkpt lat="46.02042" lon="4.65472">
        <ele>282.910004</ele>
        <time>2019-07-24T16:34:21Z</time>
      </trkpt>
      <trkpt lat="46.02168" lon="4.65515">
        <ele>276.927521</ele>
        <time>2019-07-24T16:34:25Z</time>
      </trkpt>
      <trkpt lat="46.02195" lon="4.65524">
        <ele>275.894989</ele>
        <time>2019-07-24T16:34:27Z</time>
      </trkpt>
      <trkpt lat="46.02216" lon="4.65517">
        <ele>275.695007</ele>
        <time>2019-07-24T16:34:30Z</time>
      </trkpt>
      <trkpt lat="46.02235" lon="4.65511">
        <ele>275.548248</ele>
        <time>2019-07-24T16:34:32Z</time>
      </trkpt>
      <trkpt lat="46.02236" lon="4.65517">
        <ele>275.392242</ele>
        <time>2019-07-24T16:34:33Z</time>
      </trkpt>
      <trkpt lat="46.02237" lon="4.6552">
        <ele>275.241913</ele>
        <time>2019-07-24T16:34:34Z</time>
      </trkpt>
      <trkpt lat="46.02239" lon="4.65527">
        <ele>275.038422</ele>
        <time>2019-07-24T16:34:36Z</time>
      </trkpt>
      <trkpt lat="46.02241" lon="4.65541">
        <ele>274.499115</ele>
        <time>2019-07-24T16:34:44Z</time>
      </trkpt>
      <trkpt lat="46.02257" lon="4.65615">
        <ele>271.932861</ele>
        <time>2019-07-24T16:34:47Z</time>
      </trkpt>
      <trkpt lat="46.02262" lon="4.65628">
        <ele>271.227356</ele>
        <time>2019-07-24T16:34:50Z</time>
      </trkpt>
      <trkpt lat="46.02272" lon="4.65653">
        <ele>270.431976</ele>
        <time>2019-07-24T16:34:58Z</time>
      </trkpt>
      <trkpt lat="46.02296" lon="4.65712">
        <ele>269.269989</ele>
        <time>2019-07-24T16:35:01Z</time>
      </trkpt>
      <trkpt lat="46.02304" lon="4.6573">
        <ele>269.105011</ele>
        <time>2019-07-24T16:35:05Z</time>
      </trkpt>
      <trkpt lat="46.02311" lon="4.65728">
        <ele>268.890015</ele>
        <time>2019-07-24T16:35:08Z</time>
      </trkpt>
      <trkpt lat="46.0232" lon="4.65723">
        <ele>268.709991</ele>
        <time>2019-07-24T16:35:14Z</time>
      </trkpt>
      <trkpt lat="46.02336" lon="4.65717">
        <ele>268.399994</ele>
        <time>2019-07-24T16:35:24Z</time>
      </trkpt>
      <trkpt lat="46.02374" lon="4.657">
        <ele>267.505005</ele>
        <time>2019-07-24T16:35:44Z</time>
      </trkpt>
      <trkpt lat="46.02437" lon="4.65655">
        <ele>261.352692</ele>
        <time>2019-07-24T16:35:47Z</time>
      </trkpt>
      <trkpt lat="46.02448" lon="4.65649">
        <ele>260.006989</ele>
        <time>2019-07-24T16:35:49Z</time>
      </trkpt>
      <trkpt lat="46.02451" lon="4.65637">
        <ele>259.436707</ele>
        <time>2019-07-24T16:35:55Z</time>
      </trkpt>
      <trkpt lat="46.0247" lon="4.65583">
        <ele>259.606262</ele>
        <time>2019-07-24T16:35:59Z</time>
      </trkpt>
      <trkpt lat="46.02489" lon="4.6554">
        <ele>258.586243</ele>
        <time>2019-07-24T16:36:04Z</time>
      </trkpt>
      <trkpt lat="46.02499" lon="4.65514">
        <ele>258.123749</ele>
        <time>2019-07-24T16:36:07Z</time>
      </trkpt>
      <trkpt lat="46.02504" lon="4.65518">
        <ele>257.826263</ele>
        <time>2019-07-24T16:36:16Z</time>
      </trkpt>
      <trkpt lat="46.025" lon="4.65547">
        <ele>257.654999</ele>
        <time>2019-07-24T16:36:31Z</time>
      </trkpt>
      <trkpt lat="46.0249" lon="4.65606">
        <ele>256.895233</ele>
        <time>2019-07-24T16:36:51Z</time>
      </trkpt>
      <trkpt lat="46.02481" lon="4.65698">
        <ele>253.684067</ele>
        <time>2019-07-24T16:36:58Z</time>
      </trkpt>
      <trkpt lat="46.0248" lon="4.65731">
        <ele>252.773758</ele>
        <time>2019-07-24T16:37:07Z</time>
      </trkpt>
      <trkpt lat="46.02481" lon="4.65771">
        <ele>251.800003</ele>
        <time>2019-07-24T16:37:14Z</time>
      </trkpt>
      <trkpt lat="46.02487" lon="4.65803">
        <ele>250.61171</ele>
        <time>2019-07-24T16:37:33Z</time>
      </trkpt>
      <trkpt lat="46.02506" lon="4.65895">
        <ele>247.218002</ele>
        <time>2019-07-24T16:37:37Z</time>
      </trkpt>
      <trkpt lat="46.02511" lon="4.65912">
        <ele>246.300797</ele>
        <time>2019-07-24T16:37:41Z</time>
      </trkpt>
      <trkpt lat="46.02513" lon="4.6593">
        <ele>246.231598</ele>
        <time>2019-07-24T16:38:08Z</time>
      </trkpt>
      <trkpt lat="46.02542" lon="4.66063">
        <ele>243.578049</ele>
        <time>2019-07-24T16:38:28Z</time>
      </trkpt>
      <trkpt lat="46.02567" lon="4.66174">
        <ele>241.04187</ele>
        <time>2019-07-24T16:39:00Z</time>
      </trkpt>
      <trkpt lat="46.02595" lon="4.66337">
        <ele>240.914993</ele>
        <time>2019-07-24T16:39:17Z</time>
      </trkpt>
      <trkpt lat="46.0261" lon="4.66437">
        <ele>240.872116</ele>
        <time>2019-07-24T16:39:23Z</time>
      </trkpt>
      <trkpt lat="46.02614" lon="4.66474">
        <ele>241.016571</ele>
        <time>2019-07-24T16:39:51Z</time>
      </trkpt>
      <trkpt lat="46.02626" lon="4.66637">
        <ele>240.683105</ele>
        <time>2019-07-24T16:39:57Z</time>
      </trkpt>
      <trkpt lat="46.02633" lon="4.66672">
        <ele>240.758118</ele>
        <time>2019-07-24T16:40:06Z</time>
      </trkpt>
      <trkpt lat="46.02651" lon="4.66726">
        <ele>240.595001</ele>
        <time>2019-07-24T16:40:21Z</time>
      </trkpt>
      <trkpt lat="46.02688" lon="4.66805">
        <ele>239.612274</ele>
        <time>2019-07-24T16:40:28Z</time>
      </trkpt>
      <trkpt lat="46.02702" lon="4.66844">
        <ele>239.149994</ele>
        <time>2019-07-24T16:40:48Z</time>
      </trkpt>
      <trkpt lat="46.02759" lon="4.66974">
        <ele>233.589996</ele>
        <time>2019-07-24T16:40:51Z</time>
      </trkpt>
      <trkpt lat="46.02766" lon="4.66996">
        <ele>232.434998</ele>
        <time>2019-07-24T16:40:54Z</time>
      </trkpt>
      <trkpt lat="46.0277" lon="4.67021">
        <ele>231.539993</ele>
        <time>2019-07-24T16:40:57Z</time>
      </trkpt>
      <trkpt lat="46.02772" lon="4.67047">
        <ele>230.462494</ele>
        <time>2019-07-24T16:40:59Z</time>
      </trkpt>
      <trkpt lat="46.0277" lon="4.67064">
        <ele>230.110001</ele>
        <time>2019-07-24T16:41:01Z</time>
      </trkpt>
      <trkpt lat="46.02767" lon="4.6708">
        <ele>229.979996</ele>
        <time>2019-07-24T16:41:05Z</time>
      </trkpt>
      <trkpt lat="46.02757" lon="4.6711">
        <ele>229.935455</ele>
        <time>2019-07-24T16:41:11Z</time>
      </trkpt>
      <trkpt lat="46.02739" lon="4.67145">
        <ele>230.375793</ele>
        <time>2019-07-24T16:41:13Z</time>
      </trkpt>
      <trkpt lat="46.0274" lon="4.67156">
        <ele>229.67421</ele>
        <time>2019-07-24T16:41:24Z</time>
      </trkpt>
      <trkpt lat="46.02776" lon="4.67231">
        <ele>223.2659</ele>
        <time>2019-07-24T16:41:25Z</time>
      </trkpt>
      <trkpt lat="46.02778" lon="4.67232">
        <ele>223.070999</ele>
        <time>2019-07-24T16:41:27Z</time>
      </trkpt>
      <trkpt lat="46.02783" lon="4.67228">
        <ele>222.761765</ele>
        <time>2019-07-24T16:41:40Z</time>
      </trkpt>
      <trkpt lat="46.02819" lon="4.67149">
        <ele>221.558807</ele>
        <time>2019-07-24T16:41:42Z</time>
      </trkpt>
      <trkpt lat="46.0283" lon="4.67126">
        <ele>221.337646</ele>
        <time>2019-07-24T16:41:44Z</time>
      </trkpt>
      <trkpt lat="46.0285" lon="4.67102">
        <ele>221.000351</ele>
        <time>2019-07-24T16:41:46Z</time>
      </trkpt>
      <trkpt lat="46.02861" lon="4.67096">
        <ele>220.387405</ele>
        <time>2019-07-24T16:41:49Z</time>
      </trkpt>
      <trkpt lat="46.02872" lon="4.67091">
        <ele>219.095093</ele>
        <time>2019-07-24T16:41:51Z</time>
      </trkpt>
      <trkpt lat="46.02884" lon="4.67085">
        <ele>219.021179</ele>
        <time>2019-07-24T16:41:55Z</time>
      </trkpt>
      <trkpt lat="46.02895" lon="4.6708">
        <ele>219.048035</ele>
        <time>2019-07-24T16:41:57Z</time>
      </trkpt>
      <trkpt lat="46.02906" lon="4.67074">
        <ele>219.030334</ele>
        <time>2019-07-24T16:41:59Z</time>
      </trkpt>
      <trkpt lat="46.02913" lon="4.67065">
        <ele>219.028046</ele>
        <time>2019-07-24T16:42:04Z</time>
      </trkpt>
      <trkpt lat="46.0293" lon="4.67043">
        <ele>219.822342</ele>
        <time>2019-07-24T16:42:07Z</time>
      </trkpt>
      <trkpt lat="46.02941" lon="4.67029">
        <ele>220.342148</ele>
        <time>2019-07-24T16:42:09Z</time>
      </trkpt>
      <trkpt lat="46.02945" lon="4.67024">
        <ele>220.589996</ele>
        <time>2019-07-24T16:42:10Z</time>
      </trkpt>
      <trkpt lat="46.02948" lon="4.67025">
        <ele>220.710007</ele>
        <time>2019-07-24T16:42:16Z</time>
      </trkpt>
      <trkpt lat="46.02957" lon="4.67043">
        <ele>220.811249</ele>
        <time>2019-07-24T16:42:19Z</time>
      </trkpt>
      <trkpt lat="46.02961" lon="4.67056">
        <ele>220.714996</ele>
        <time>2019-07-24T16:42:23Z</time>
      </trkpt>
      <trkpt lat="46.02966" lon="4.67077">
        <ele>220.490005</ele>
        <time>2019-07-24T16:42:38Z</time>
      </trkpt>
      <trkpt lat="46.02977" lon="4.67162">
        <ele>220.467499</ele>
        <time>2019-07-24T16:42:53Z</time>
      </trkpt>
      <trkpt lat="46.02984" lon="4.67251">
        <ele>219.307495</ele>
        <time>2019-07-24T16:42:59Z</time>
      </trkpt>
      <trkpt lat="46.02988" lon="4.67273">
        <ele>219.063751</ele>
        <time>2019-07-24T16:43:11Z</time>
      </trkpt>
      <trkpt lat="46.03003" lon="4.67311">
        <ele>218.880005</ele>
        <time>2019-07-24T16:43:26Z</time>
      </trkpt>
      <trkpt lat="46.03008" lon="4.67326">
        <ele>218.699997</ele>
        <time>2019-07-24T16:43:46Z</time>
      </trkpt>
      <trkpt lat="46.0301" lon="4.67334">
        <ele>218.757507</ele>
        <time>2019-07-24T16:43:53Z</time>
      </trkpt>
      <trkpt lat="46.03015" lon="4.67365">
        <ele>218.505005</ele>
        <time>2019-07-24T16:43:59Z</time>
      </trkpt>
      <trkpt lat="46.03016" lon="4.67393">
        <ele>218.535004</ele>
        <time>2019-07-24T16:44:06Z</time>
      </trkpt>
      <trkpt lat="46.03024" lon="4.67424">
        <ele>218.522507</ele>
        <time>2019-07-24T16:44:12Z</time>
      </trkpt>
      <trkpt lat="46.03029" lon="4.6745">
        <ele>218.300003</ele>
        <time>2019-07-24T16:45:36Z</time>
      </trkpt>
      <trkpt lat="46.03035" lon="4.67469">
        <ele>218.346252</ele>
        <time>2019-07-24T16:45:44Z</time>
      </trkpt>
      <trkpt lat="46.03043" lon="4.67495">
        <ele>218.117508</ele>
        <time>2019-07-24T16:45:49Z</time>
      </trkpt>
      <trkpt lat="46.03047" lon="4.67507">
        <ele>217.896255</ele>
        <time>2019-07-24T16:45:59Z</time>
      </trkpt>
      <trkpt lat="46.03058" lon="4.67543">
        <ele>217.591248</ele>
        <time>2019-07-24T16:46:03Z</time>
      </trkpt>
      <trkpt lat="46.03063" lon="4.67552">
        <ele>217.56488</ele>
        <time>2019-07-24T16:46:09Z</time>
      </trkpt>
      <trkpt lat="46.03067" lon="4.67575">
        <ele>217.312256</ele>
        <time>2019-07-24T16:46:16Z</time>
      </trkpt>
      <trkpt lat="46.03073" lon="4.67602">
        <ele>217.337494</ele>
        <time>2019-07-24T16:46:37Z</time>
      </trkpt>
      <trkpt lat="46.03083" lon="4.67638">
        <ele>216</ele>
      </trkpt>
      <trkpt lat="46.03085" lon="4.67664">
        <ele>217.850006</ele>
        <time>2019-07-24T16:46:42Z</time>
      </trkpt>
      <trkpt lat="46.03086" lon="4.67677">
        <ele>217.800003</ele>
        <time>2019-07-24T16:54:19Z</time>
      </trkpt>
      <trkpt lat="46.03086" lon="4.67687">
        <ele>217.850006</ele>
        <time>2019-07-24T16:54:20Z</time>
      </trkpt>
      <trkpt lat="46.0308" lon="4.67712">
        <ele>217.220001</ele>
        <time>2019-07-24T16:54:25Z</time>
      </trkpt>
      <trkpt lat="46.03075" lon="4.67739">
        <ele>217.009995</ele>
        <time>2019-07-24T16:54:31Z</time>
      </trkpt>
      <trkpt lat="46.03067" lon="4.67761">
        <ele>216.679993</ele>
        <time>2019-07-24T16:54:40Z</time>
      </trkpt>
      <trkpt lat="46.03057" lon="4.67796">
        <ele>216.270004</ele>
        <time>2019-07-24T16:54:48Z</time>
      </trkpt>
      <trkpt lat="46.03045" lon="4.6782">
        <ele>215.550003</ele>
        <time>2019-07-24T16:54:58Z</time>
      </trkpt>
      <trkpt lat="46.03041" lon="4.67839">
        <ele>215.069992</ele>
        <time>2019-07-24T16:55:14Z</time>
      </trkpt>
      <trkpt lat="46.03014" lon="4.67893">
        <ele>213.470001</ele>
        <time>2019-07-24T16:55:16Z</time>
      </trkpt>
      <trkpt lat="46.03014" lon="4.679">
        <ele>213.460007</ele>
        <time>2019-07-24T16:55:18Z</time>
      </trkpt>
      <trkpt lat="46.03016" lon="4.67903">
        <ele>213.550003</ele>
        <time>2019-07-24T16:55:20Z</time>
      </trkpt>
      <trkpt lat="46.03019" lon="4.67904">
        <ele>213.679993</ele>
        <time>2019-07-24T16:55:32Z</time>
      </trkpt>
      <trkpt lat="46.03045" lon="4.67898">
        <ele>214.675095</ele>
        <time>2019-07-24T16:55:35Z</time>
      </trkpt>
      <trkpt lat="46.03055" lon="4.67894">
        <ele>215.031631</ele>
        <time>2019-07-24T16:55:38Z</time>
      </trkpt>
      <trkpt lat="46.03062" lon="4.67888">
        <ele>215.380325</ele>
        <time>2019-07-24T16:55:45Z</time>
      </trkpt>
      <trkpt lat="46.03074" lon="4.67872">
        <ele>216.092499</ele>
        <time>2019-07-24T16:55:50Z</time>
      </trkpt>
      <trkpt lat="46.03083" lon="4.67863">
        <ele>216.637497</ele>
        <time>2019-07-24T16:55:56Z</time>
      </trkpt>
      <trkpt lat="46.03093" lon="4.67843">
        <ele>217.358749</ele>
        <time>2019-07-24T16:55:58Z</time>
      </trkpt>
      <trkpt lat="46.03097" lon="4.67837">
        <ele>217.630005</ele>
        <time>2019-07-24T16:56:02Z</time>
      </trkpt>
      <trkpt lat="46.03105" lon="4.67831">
        <ele>218.054993</ele>
        <time>2019-07-24T16:56:08Z</time>
      </trkpt>
      <trkpt lat="46.03119" lon="4.67829">
        <ele>218.722504</ele>
        <time>2019-07-24T16:56:25Z</time>
      </trkpt>
      <trkpt lat="46.03157" lon="4.67813">
        <ele>219.826248</ele>
        <time>2019-07-24T16:56:45Z</time>
      </trkpt>
      <trkpt lat="46.03163" lon="4.67807">
        <ele>220</ele>
        <time>2019-07-24T16:57:12Z</time>
      </trkpt>
      <trkpt lat="46.03222" lon="4.67775">
        <ele>221.174744</ele>
        <time>2019-07-24T16:57:46Z</time>
      </trkpt>
      <trkpt lat="46.03288" lon="4.67733">
        <ele>222.198929</ele>
        <time>2019-07-24T16:58:11Z</time>
      </trkpt>
      <trkpt lat="46.0334" lon="4.67706">
        <ele>223.619995</ele>
        <time>2019-07-24T16:58:14Z</time>
      </trkpt>
      <trkpt lat="46.03346" lon="4.67707">
        <ele>223.728745</ele>
        <time>2019-07-24T16:58:16Z</time>
      </trkpt>
      <trkpt lat="46.03348" lon="4.6771">
        <ele>223.668747</ele>
        <time>2019-07-24T16:58:33Z</time>
      </trkpt>
      <trkpt lat="46.03358" lon="4.67776">
        <ele>222.771439</ele>
        <time>2019-07-24T16:59:07Z</time>
      </trkpt>
      <trkpt lat="46.03384" lon="4.67977">
        <ele>222</ele>
        <time>2019-07-24T16:59:47Z</time>
      </trkpt>
      <trkpt lat="46.03423" lon="4.68219">
        <ele>218.994888</ele>
        <time>2019-07-24T16:59:57Z</time>
      </trkpt>
      <trkpt lat="46.03428" lon="4.68238">
        <ele>219.035995</ele>
        <time>2019-07-24T17:00:19Z</time>
      </trkpt>
      <trkpt lat="46.03436" lon="4.68236">
        <ele>219.104645</ele>
        <time>2019-07-24T17:00:25Z</time>
      </trkpt>
      <trkpt lat="46.03456" lon="4.68221">
        <ele>219.112793</ele>
        <time>2019-07-24T17:00:44Z</time>
      </trkpt>
      <trkpt lat="46.03523" lon="4.6815">
        <ele>220.156006</ele>
        <time>2019-07-24T17:00:58Z</time>
      </trkpt>
      <trkpt lat="46.03574" lon="4.68101">
        <ele>221.201508</ele>
        <time>2019-07-24T17:01:00Z</time>
      </trkpt>
      <trkpt lat="46.03579" lon="4.68098">
        <ele>221.306091</ele>
        <time>2019-07-24T17:01:02Z</time>
      </trkpt>
      <trkpt lat="46.03583" lon="4.68101">
        <ele>221.370712</ele>
        <time>2019-07-24T17:01:04Z</time>
      </trkpt>
      <trkpt lat="46.03586" lon="4.68106">
        <ele>221.368805</ele>
        <time>2019-07-24T17:01:07Z</time>
      </trkpt>
      <trkpt lat="46.03587" lon="4.68119">
        <ele>221.281662</ele>
        <time>2019-07-24T17:01:21Z</time>
      </trkpt>
      <trkpt lat="46.03588" lon="4.6821">
        <ele>220.667847</ele>
        <time>2019-07-24T17:01:29Z</time>
      </trkpt>
      <trkpt lat="46.03594" lon="4.68257">
        <ele>220.774994</ele>
        <time>2019-07-24T17:01:36Z</time>
      </trkpt>
      <trkpt lat="46.03595" lon="4.68293">
        <ele>220.662186</ele>
        <time>2019-07-24T17:01:51Z</time>
      </trkpt>
      <trkpt lat="46.03591" lon="4.68374">
        <ele>220</ele>
        <time>2019-07-24T17:01:58Z</time>
      </trkpt>
      <trkpt lat="46.03587" lon="4.68413">
        <ele>220</ele>
        <time>2019-07-24T17:02:22Z</time>
      </trkpt>
      <trkpt lat="46.03584" lon="4.68549">
        <ele>220.954269</ele>
        <time>2019-07-24T17:02:29Z</time>
      </trkpt>
      <trkpt lat="46.03581" lon="4.68597">
        <ele>220.683609</ele>
        <time>2019-07-24T17:02:31Z</time>
      </trkpt>
      <trkpt lat="46.03584" lon="4.68609">
        <ele>220.586029</ele>
        <time>2019-07-24T17:02:32Z</time>
      </trkpt>
      <trkpt lat="46.03586" lon="4.68613">
        <ele>220.530945</ele>
        <time>2019-07-24T17:02:35Z</time>
      </trkpt>
      <trkpt lat="46.03598" lon="4.68621">
        <ele>220.464996</ele>
        <time>2019-07-24T17:02:37Z</time>
      </trkpt>
      <trkpt lat="46.03605" lon="4.68628">
        <ele>220.095001</ele>
        <time>2019-07-24T17:02:39Z</time>
      </trkpt>
      <trkpt lat="46.03609" lon="4.68638">
        <ele>219.677505</ele>
        <time>2019-07-24T17:02:41Z</time>
      </trkpt>
      <trkpt lat="46.0361" lon="4.68651">
        <ele>219.247498</ele>
        <time>2019-07-24T17:02:49Z</time>
      </trkpt>
      <trkpt lat="46.03602" lon="4.68709">
        <ele>218.114838</ele>
        <time>2019-07-24T17:03:14Z</time>
      </trkpt>
      <trkpt lat="46.03579" lon="4.68884">
        <ele>214.320007</ele>
        <time>2019-07-24T17:03:19Z</time>
      </trkpt>
      <trkpt lat="46.03585" lon="4.68889">
        <ele>213.987503</ele>
        <time>2019-07-24T17:03:22Z</time>
      </trkpt>
      <trkpt lat="46.03586" lon="4.68889">
        <ele>214.020004</ele>
        <time>2019-07-24T17:03:25Z</time>
      </trkpt>
      <trkpt lat="46.03589" lon="4.68884">
        <ele>214.232498</ele>
        <time>2019-07-24T17:03:27Z</time>
      </trkpt>
      <trkpt lat="46.0359" lon="4.68882">
        <ele>214.404999</ele>
        <time>2019-07-24T17:03:36Z</time>
      </trkpt>
      <trkpt lat="46.03619" lon="4.68878">
        <ele>214.084534</ele>
        <time>2019-07-24T17:03:38Z</time>
      </trkpt>
      <trkpt lat="46.03622" lon="4.6888">
        <ele>213.977112</ele>
        <time>2019-07-24T17:03:40Z</time>
      </trkpt>
      <trkpt lat="46.03623" lon="4.68886">
        <ele>213.838394</ele>
        <time>2019-07-24T17:03:48Z</time>
      </trkpt>
      <trkpt lat="46.03624" lon="4.68925">
        <ele>213.065628</ele>
        <time>2019-07-24T17:03:57Z</time>
      </trkpt>
      <trkpt lat="46.03627" lon="4.68984">
        <ele>211.422531</ele>
        <time>2019-07-24T17:03:58Z</time>
      </trkpt>
      <trkpt lat="46.03628" lon="4.6899">
        <ele>211.216324</ele>
        <time>2019-07-24T17:04:00Z</time>
      </trkpt>
      <trkpt lat="46.03634" lon="4.68998">
        <ele>210.858948</ele>
        <time>2019-07-24T17:04:02Z</time>
      </trkpt>
      <trkpt lat="46.03642" lon="4.69002">
        <ele>210.737793</ele>
        <time>2019-07-24T17:04:05Z</time>
      </trkpt>
      <trkpt lat="46.03654" lon="4.69003">
        <ele>210.688797</ele>
        <time>2019-07-24T17:04:21Z</time>
      </trkpt>
      <trkpt lat="46.03719" lon="4.68992">
        <ele>210.259308</ele>
        <time>2019-07-24T17:04:25Z</time>
      </trkpt>
      <trkpt lat="46.03734" lon="4.68986">
        <ele>210.142502</ele>
        <time>2019-07-24T17:04:28Z</time>
      </trkpt>
      <trkpt lat="46.03745" lon="4.68976">
        <ele>210.212494</ele>
        <time>2019-07-24T17:04:32Z</time>
      </trkpt>
      <trkpt lat="46.0376" lon="4.68969">
        <ele>210.132492</ele>
        <time>2019-07-24T17:04:38Z</time>
      </trkpt>
      <trkpt lat="46.03782" lon="4.68968">
        <ele>209.553207</ele>
        <time>2019-07-24T17:04:39Z</time>
      </trkpt>
      <trkpt lat="46.03784" lon="4.68971">
        <ele>209.409073</ele>
        <time>2019-07-24T17:04:42Z</time>
      </trkpt>
      <trkpt lat="46.03787" lon="4.68982">
        <ele>209.051575</ele>
        <time>2019-07-24T17:05:08Z</time>
      </trkpt>
      <trkpt lat="46.03788" lon="4.69159">
        <ele>203.544998</ele>
        <time>2019-07-24T17:05:17Z</time>
      </trkpt>
      <trkpt lat="46.03791" lon="4.69223">
        <ele>202.552505</ele>
        <time>2019-07-24T17:05:20Z</time>
      </trkpt>
      <trkpt lat="46.03793" lon="4.69244">
        <ele>202.232498</ele>
        <time>2019-07-24T17:05:23Z</time>
      </trkpt>
      <trkpt lat="46.03744" lon="4.69244">
        <ele>202.267502</ele>
        <time>2019-07-24T17:08:38Z</time>
      </trkpt>
      <trkpt lat="46.03735" lon="4.69244">
        <ele>202.330002</ele>
        <time>2019-07-24T17:08:49Z</time>
      </trkpt>
      <trkpt lat="46.0371" lon="4.69244">
        <ele>202.381256</ele>
        <time>2019-07-24T17:08:59Z</time>
      </trkpt>
      <trkpt lat="46.03669" lon="4.69241">
        <ele>202.734558</ele>
        <time>2019-07-24T17:09:17Z</time>
      </trkpt>
      <trkpt lat="46.03637" lon="4.6924">
        <ele>202.922501</ele>
        <time>2019-07-24T17:09:29Z</time>
      </trkpt>
      <trkpt lat="46.0357" lon="4.69227">
        <ele>203.492493</ele>
        <time>2019-07-24T17:09:37Z</time>
      </trkpt>
      <trkpt lat="46.03519" lon="4.69217">
        <ele>203.630005</ele>
        <time>2019-07-24T17:09:50Z</time>
      </trkpt>
      <trkpt lat="46.03454" lon="4.69205">
        <ele>203.580002</ele>
        <time>2019-07-24T17:10:02Z</time>
      </trkpt>
      <trkpt lat="46.03436" lon="4.69204">
        <ele>203.438828</ele>
        <time>2019-07-24T17:10:06Z</time>
      </trkpt>
      <trkpt lat="46.03381" lon="4.69201">
        <ele>203</ele>
        <time>2019-07-24T17:10:15Z</time>
      </trkpt>
      <trkpt lat="46.03363" lon="4.69207">
        <ele>203</ele>
        <time>2019-07-24T17:10:44Z</time>
      </trkpt>
      <trkpt lat="46.03323" lon="4.69216">
        <ele>202.694092</ele>
        <time>2019-07-24T17:10:54Z</time>
      </trkpt>
      <trkpt lat="46.03184" lon="4.69255">
        <ele>202.033691</ele>
        <time>2019-07-24T17:11:08Z</time>
      </trkpt>
      <trkpt lat="46.03133" lon="4.6927">
        <ele>202</ele>
        <time>2019-07-24T17:11:22Z</time>
      </trkpt>
      <trkpt lat="46.03059" lon="4.69289">
        <ele>200.384995</ele>
        <time>2019-07-24T17:11:26Z</time>
      </trkpt>
      <trkpt lat="46.02979" lon="4.69316">
        <ele>198.199997</ele>
        <time>2019-07-24T17:11:35Z</time>
      </trkpt>
      <trkpt lat="46.02967" lon="4.6932">
        <ele>197.800003</ele>
        <time>2019-07-24T17:11:36Z</time>
      </trkpt>
      <trkpt lat="46.03004" lon="4.69101">
        <ele>198.5</ele>
      </trkpt>
      <trkpt lat="46.03074" lon="4.68626">
        <ele>205.902496</ele>
        <time>2019-07-24T17:14:36Z</time>
      </trkpt>
      <trkpt lat="46.03088" lon="4.6859">
        <ele>205.983749</ele>
        <time>2019-07-24T17:14:47Z</time>
      </trkpt>
      <trkpt lat="46.03065" lon="4.6858">
        <ele>206.027496</ele>
        <time>2019-07-24T17:14:49Z</time>
      </trkpt>
      <trkpt lat="46.03038" lon="4.68578">
        <ele>205.611252</ele>
        <time>2019-07-24T17:14:52Z</time>
      </trkpt>
      <trkpt lat="46.03033" lon="4.68575">
        <ele>205.529999</ele>
        <time>2019-07-24T17:15:09Z</time>
      </trkpt>
      <trkpt lat="46.03028" lon="4.68569">
        <ele>205.513748</ele>
        <time>2019-07-24T17:15:15Z</time>
      </trkpt>
      <trkpt lat="46.03017" lon="4.68524">
        <ele>205.952499</ele>
        <time>2019-07-24T17:15:22Z</time>
      </trkpt>
      <trkpt lat="46.03011" lon="4.68507">
        <ele>206.041351</ele>
        <time>2019-07-24T17:15:26Z</time>
      </trkpt>
      <trkpt lat="46.03004" lon="4.68484">
        <ele>206.13382</ele>
        <time>2019-07-24T17:15:29Z</time>
      </trkpt>
      <trkpt lat="46.02996" lon="4.68472">
        <ele>205.991501</ele>
        <time>2019-07-24T17:15:31Z</time>
      </trkpt>
      <trkpt lat="46.02989" lon="4.68466">
        <ele>205.738434</ele>
        <time>2019-07-24T17:15:43Z</time>
      </trkpt>
      <trkpt lat="46.02981" lon="4.68464">
        <ele>205.459229</ele>
        <time>2019-07-24T17:15:57Z</time>
      </trkpt>
      <trkpt lat="46.02923" lon="4.68467">
        <ele>202.964996</ele>
        <time>2019-07-24T17:16:10Z</time>
      </trkpt>
      <trkpt lat="46.02869" lon="4.68468">
        <ele>202.470001</ele>
        <time>2019-07-24T17:16:23Z</time>
      </trkpt>
      <trkpt lat="46.02822" lon="4.68473">
        <ele>204.863556</ele>
        <time>2019-07-24T17:16:52Z</time>
      </trkpt>
      <trkpt lat="46.02783" lon="4.68472">
        <ele>207.300003</ele>
        <time>2019-07-24T17:16:55Z</time>
      </trkpt>
      <trkpt lat="46.02716" lon="4.68477">
        <ele>209.407501</ele>
        <time>2019-07-24T17:17:00Z</time>
      </trkpt>
      <trkpt lat="46.0271" lon="4.68473">
        <ele>209.642502</ele>
        <time>2019-07-24T17:17:06Z</time>
      </trkpt>
      <trkpt lat="46.02708" lon="4.68459">
        <ele>210.13501</ele>
        <time>2019-07-24T17:17:10Z</time>
      </trkpt>
      <trkpt lat="46.02708" lon="4.68438">
        <ele>210.792496</ele>
        <time>2019-07-24T17:17:28Z</time>
      </trkpt>
      <trkpt lat="46.02709" lon="4.68423">
        <ele>211.235001</ele>
        <time>2019-07-24T17:17:32Z</time>
      </trkpt>
      <trkpt lat="46.0271" lon="4.68357">
        <ele>213.235352</ele>
        <time>2019-07-24T17:18:13Z</time>
      </trkpt>
      <trkpt lat="46.02712" lon="4.68344">
        <ele>213.581558</ele>
        <time>2019-07-24T17:18:15Z</time>
      </trkpt>
      <trkpt lat="46.02714" lon="4.68179">
        <ele>217.36705</ele>
        <time>2019-07-24T17:18:34Z</time>
      </trkpt>
      <trkpt lat="46.02713" lon="4.68176">
        <ele>217.51944</ele>
        <time>2019-07-24T17:18:39Z</time>
      </trkpt>
      <trkpt lat="46.02657" lon="4.68152">
        <ele>219.03273</ele>
        <time>2019-07-24T17:19:28Z</time>
      </trkpt>
      <trkpt lat="46.0264" lon="4.68146">
        <ele>219.217911</ele>
        <time>2019-07-24T17:19:30Z</time>
      </trkpt>
      <trkpt lat="46.02468" lon="4.6807">
        <ele>217.194992</ele>
        <time>2019-07-24T17:19:32Z</time>
      </trkpt>
      <trkpt lat="46.02463" lon="4.68074">
        <ele>217.016251</ele>
        <time>2019-07-24T17:19:52Z</time>
      </trkpt>
      <trkpt lat="46.02461" lon="4.68082">
        <ele>216.866241</ele>
        <time>2019-07-24T17:19:54Z</time>
      </trkpt>
      <trkpt lat="46.02467" lon="4.68172">
        <ele>216.657639</ele>
        <time>2019-07-24T17:19:56Z</time>
      </trkpt>
      <trkpt lat="46.02464" lon="4.68178">
        <ele>216.549866</ele>
        <time>2019-07-24T17:19:58Z</time>
      </trkpt>
      <trkpt lat="46.0246" lon="4.6818">
        <ele>216.439423</ele>
        <time>2019-07-24T17:20:11Z</time>
      </trkpt>
      <trkpt lat="46.02455" lon="4.68179">
        <ele>216.359421</ele>
        <time>2019-07-24T17:20:13Z</time>
      </trkpt>
      <trkpt lat="46.02418" lon="4.68155">
        <ele>215.595001</ele>
        <time>2019-07-24T17:20:14Z</time>
      </trkpt>
      <trkpt lat="46.02412" lon="4.68156">
        <ele>215.470001</ele>
        <time>2019-07-24T17:20:16Z</time>
      </trkpt>
      <trkpt lat="46.0241" lon="4.68159">
        <ele>215.434998</ele>
        <time>2019-07-24T17:20:30Z</time>
      </trkpt>
      <trkpt lat="46.02409" lon="4.68166">
        <ele>215.404999</ele>
        <time>2019-07-24T17:20:33Z</time>
      </trkpt>
      <trkpt lat="46.02405" lon="4.68246">
        <ele>215.125</ele>
        <time>2019-07-24T17:20:40Z</time>
      </trkpt>
      <trkpt lat="46.02406" lon="4.68265">
        <ele>214.850006</ele>
        <time>2019-07-24T17:20:41Z</time>
      </trkpt>
      <trkpt lat="46.02401" lon="4.68307">
        <ele>213.892502</ele>
        <time>2019-07-24T17:20:43Z</time>
      </trkpt>
      <trkpt lat="46.02399" lon="4.68314">
        <ele>213.662506</ele>
        <time>2019-07-24T17:20:45Z</time>
      </trkpt>
      <trkpt lat="46.02394" lon="4.68313">
        <ele>213.30249</ele>
        <time>2019-07-24T17:20:49Z</time>
      </trkpt>
      <trkpt lat="46.0239" lon="4.68311">
        <ele>213.089996</ele>
        <time>2019-07-24T17:20:51Z</time>
      </trkpt>
      <trkpt lat="46.02381" lon="4.68307">
        <ele>212.880005</ele>
        <time>2019-07-24T17:20:52Z</time>
      </trkpt>
      <trkpt lat="46.02379" lon="4.6834">
        <ele>212.649994</ele>
        <time>2019-07-24T17:20:54Z</time>
      </trkpt>
      <trkpt lat="46.02376" lon="4.68407">
        <ele>212.479996</ele>
        <time>2019-07-24T17:20:59Z</time>
      </trkpt>
      <trkpt lat="46.02373" lon="4.68469">
        <ele>212.077499</ele>
        <time>2019-07-24T17:21:26Z</time>
      </trkpt>
      <trkpt lat="46.02369" lon="4.68553">
        <ele>211.017502</ele>
        <time>2019-07-24T17:21:28Z</time>
      </trkpt>
      <trkpt lat="46.02358" lon="4.68613">
        <ele>203.242264</ele>
        <time>2019-07-24T17:21:30Z</time>
      </trkpt>
      <trkpt lat="46.02331" lon="4.68643">
        <ele>203.055359</ele>
        <time>2019-07-24T17:21:48Z</time>
      </trkpt>
      <trkpt lat="46.02306" lon="4.68635">
        <ele>202.896698</ele>
        <time>2019-07-24T17:21:50Z</time>
      </trkpt>
      <trkpt lat="46.02267" lon="4.68609">
        <ele>202.034256</ele>
        <time>2019-07-24T17:21:52Z</time>
      </trkpt>
      <trkpt lat="46.02256" lon="4.68612">
        <ele>202.014084</ele>
        <time>2019-07-24T17:21:54Z</time>
      </trkpt>
      <trkpt lat="46.02241" lon="4.68618">
        <ele>202</ele>
        <time>2019-07-24T17:21:56Z</time>
      </trkpt>
      <trkpt lat="46.02238" lon="4.6863">
        <ele>201.945007</ele>
        <time>2019-07-24T17:21:59Z</time>
      </trkpt>
      <trkpt lat="46.02234" lon="4.68648">
        <ele>201.880005</ele>
        <time>2019-07-24T17:22:18Z</time>
      </trkpt>
      <trkpt lat="46.02233" lon="4.6867">
        <ele>201.824997</ele>
        <time>2019-07-24T17:22:38Z</time>
      </trkpt>
      <trkpt lat="46.02224" lon="4.68823">
        <ele>199.475021</ele>
        <time>2019-07-24T17:22:44Z</time>
      </trkpt>
      <trkpt lat="46.02212" lon="4.68968">
        <ele>197.013748</ele>
        <time>2019-07-24T17:23:07Z</time>
      </trkpt>
      <trkpt lat="46.02214" lon="4.69025">
        <ele>196.096252</ele>
        <time>2019-07-24T17:23:15Z</time>
      </trkpt>
      <trkpt lat="46.02213" lon="4.69217">
        <ele>191.627335</ele>
        <time>2019-07-24T17:23:17Z</time>
      </trkpt>
      <trkpt lat="46.02212" lon="4.69292">
        <ele>190.137299</ele>
        <time>2019-07-24T17:23:21Z</time>
      </trkpt>
      <trkpt lat="46.0218" lon="4.69329">
        <ele>189.811249</ele>
        <time>2019-07-24T17:23:25Z</time>
      </trkpt>
      <trkpt lat="46.02152" lon="4.69354">
        <ele>189.51947</ele>
        <time>2019-07-24T17:23:32Z</time>
      </trkpt>
      <trkpt lat="46.02141" lon="4.69368">
        <ele>189.609711</ele>
        <time>2019-07-24T17:23:34Z</time>
      </trkpt>
      <trkpt lat="46.02131" lon="4.69399">
        <ele>190.400955</ele>
        <time>2019-07-24T17:23:36Z</time>
      </trkpt>
      <trkpt lat="46.02125" lon="4.69406">
        <ele>190.631393</ele>
        <time>2019-07-24T17:23:38Z</time>
      </trkpt>
      <trkpt lat="46.02122" lon="4.69411">
        <ele>190.749924</ele>
        <time>2019-07-24T17:23:44Z</time>
      </trkpt>
      <trkpt lat="46.02117" lon="4.69409">
        <ele>190.735672</ele>
        <time>2019-07-24T17:23:48Z</time>
      </trkpt>
      <trkpt lat="46.02121" lon="4.69384">
        <ele>190.436798</ele>
        <time>2019-07-24T17:23:49Z</time>
      </trkpt>
      <trkpt lat="46.02122" lon="4.69365">
        <ele>190.419998</ele>
        <time>2019-07-24T17:23:51Z</time>
      </trkpt>
      <trkpt lat="46.0212" lon="4.69361">
        <ele>190.449997</ele>
        <time>2019-07-24T17:24:36Z</time>
      </trkpt>
      <trkpt lat="46.02116" lon="4.69356">
        <ele>190.554993</ele>
        <time>2019-07-24T17:24:44Z</time>
      </trkpt>
      <trkpt lat="46.01981" lon="4.69344">
        <ele>195.264694</ele>
        <time>2019-07-24T17:24:58Z</time>
      </trkpt>
      <trkpt lat="46.01958" lon="4.69344">
        <ele>195.458755</ele>
        <time>2019-07-24T17:25:02Z</time>
      </trkpt>
      <trkpt lat="46.01915" lon="4.69338">
        <ele>195.529129</ele>
        <time>2019-07-24T17:25:28Z</time>
      </trkpt>
      <trkpt lat="46.01903" lon="4.6934">
        <ele>195.630402</ele>
        <time>2019-07-24T17:25:31Z</time>
      </trkpt>
      <trkpt lat="46.01832" lon="4.69336">
        <ele>196.875</ele>
        <time>2019-07-24T17:25:33Z</time>
      </trkpt>
      <trkpt lat="46.01825" lon="4.69332">
        <ele>197.142502</ele>
        <time>2019-07-24T17:25:39Z</time>
      </trkpt>
      <trkpt lat="46.01821" lon="4.69327">
        <ele>197.382507</ele>
        <time>2019-07-24T17:26:04Z</time>
      </trkpt>
      <trkpt lat="46.01815" lon="4.69305">
        <ele>198.184998</ele>
        <time>2019-07-24T17:26:10Z</time>
      </trkpt>
      <trkpt lat="46.01799" lon="4.69215">
        <ele>201.246658</ele>
        <time>2019-07-24T17:26:35Z</time>
      </trkpt>
      <trkpt lat="46.01794" lon="4.69196">
        <ele>201.924316</ele>
        <time>2019-07-24T17:26:46Z</time>
      </trkpt>
      <trkpt lat="46.01778" lon="4.69106">
        <ele>205.442505</ele>
        <time>2019-07-24T17:27:13Z</time>
      </trkpt>
      <trkpt lat="46.01774" lon="4.69063">
        <ele>206.949997</ele>
        <time>2019-07-24T17:27:22Z</time>
      </trkpt>
      <trkpt lat="46.01769" lon="4.6896">
        <ele>209.563751</ele>
        <time>2019-07-24T17:27:28Z</time>
      </trkpt>
      <trkpt lat="46.01765" lon="4.68924">
        <ele>210.031799</ele>
        <time>2019-07-24T17:27:49Z</time>
      </trkpt>
      <trkpt lat="46.01759" lon="4.68901">
        <ele>210.447952</ele>
        <time>2019-07-24T17:27:54Z</time>
      </trkpt>
      <trkpt lat="46.01733" lon="4.68831">
        <ele>211.309998</ele>
        <time>2019-07-24T17:28:09Z</time>
      </trkpt>
      <trkpt lat="46.01728" lon="4.68814">
        <ele>211.419998</ele>
        <time>2019-07-24T17:28:19Z</time>
      </trkpt>
      <trkpt lat="46.01712" lon="4.68772">
        <ele>211.794998</ele>
        <time>2019-07-24T17:28:31Z</time>
      </trkpt>
      <trkpt lat="46.01698" lon="4.68743">
        <ele>212.199997</ele>
        <time>2019-07-24T17:28:40Z</time>
      </trkpt>
      <trkpt lat="46.0168" lon="4.68697">
        <ele>213.371246</ele>
        <time>2019-07-24T17:28:53Z</time>
      </trkpt>
      <trkpt lat="46.01665" lon="4.68663">
        <ele>214.574997</ele>
        <time>2019-07-24T17:29:02Z</time>
      </trkpt>
      <trkpt lat="46.01637" lon="4.68617">
        <ele>216.051254</ele>
        <time>2019-07-24T17:29:14Z</time>
      </trkpt>
      <trkpt lat="46.01619" lon="4.68585">
        <ele>216.931244</ele>
        <time>2019-07-24T17:29:18Z</time>
      </trkpt>
      <trkpt lat="46.01595" lon="4.68547">
        <ele>218.053757</ele>
        <time>2019-07-24T17:29:20Z</time>
      </trkpt>
      <trkpt lat="46.01589" lon="4.68531">
        <ele>218.440002</ele>
        <time>2019-07-24T17:29:58Z</time>
      </trkpt>
      <trkpt lat="46.01587" lon="4.68522">
        <ele>218.626251</ele>
        <time>2019-07-24T17:30:03Z</time>
      </trkpt>
      <trkpt lat="46.0157" lon="4.68337">
        <ele>221.117493</ele>
        <time>2019-07-24T17:30:07Z</time>
      </trkpt>
      <trkpt lat="46.01564" lon="4.68313">
        <ele>221.610001</ele>
        <time>2019-07-24T17:30:28Z</time>
      </trkpt>
      <trkpt lat="46.01555" lon="4.68295">
        <ele>222.020004</ele>
        <time>2019-07-24T17:30:33Z</time>
      </trkpt>
      <trkpt lat="46.01503" lon="4.68216">
        <ele>224.593262</ele>
        <time>2019-07-24T17:30:37Z</time>
      </trkpt>
      <trkpt lat="46.01496" lon="4.68198">
        <ele>224.851334</ele>
        <time>2019-07-24T17:30:51Z</time>
      </trkpt>
      <trkpt lat="46.01495" lon="4.68182">
        <ele>224.889999</ele>
        <time>2019-07-24T17:30:57Z</time>
      </trkpt>
      <trkpt lat="46.01503" lon="4.68123">
        <ele>224.730652</ele>
        <time>2019-07-24T17:31:00Z</time>
      </trkpt>
      <trkpt lat="46.01504" lon="4.68099">
        <ele>224.583191</ele>
        <time>2019-07-24T17:31:02Z</time>
      </trkpt>
      <trkpt lat="46.01495" lon="4.681">
        <ele>224.690689</ele>
        <time>2019-07-24T17:31:15Z</time>
      </trkpt>
      <trkpt lat="46.01488" lon="4.68099">
        <ele>225</ele>
        <time>2019-07-24T17:31:24Z</time>
      </trkpt>
      <trkpt lat="46.01475" lon="4.68099">
        <ele>227.431259</ele>
        <time>2019-07-24T17:31:40Z</time>
      </trkpt>
      <trkpt lat="46.01457" lon="4.681">
        <ele>229.238754</ele>
        <time>2019-07-24T17:31:58Z</time>
      </trkpt>
      <trkpt lat="46.01432" lon="4.68099">
        <ele>231.796356</ele>
        <time>2019-07-24T17:33:03Z</time>
      </trkpt>
      <trkpt lat="46.01392" lon="4.68105">
        <ele>233.110001</ele>
        <time>2019-07-24T17:33:04Z</time>
      </trkpt>
      <trkpt lat="46.0134" lon="4.68115">
        <ele>235.249969</ele>
        <time>2019-07-24T17:33:25Z</time>
      </trkpt>
      <trkpt lat="46.01303" lon="4.68111">
        <ele>235.59375</ele>
        <time>2019-07-24T17:33:33Z</time>
      </trkpt>
      <trkpt lat="46.01266" lon="4.6811">
        <ele>235.4</ele>
      </trkpt>
      <trkpt lat="46.0124" lon="4.68108">
        <ele>237.413742</ele>
        <time>2019-07-24T17:33:35Z</time>
      </trkpt>
      <trkpt lat="46.01223" lon="4.68109">
        <ele>237.633881</ele>
        <time>2019-07-24T17:33:39Z</time>
      </trkpt>
      <trkpt lat="46.01206" lon="4.68108">
        <ele>237.56308</ele>
        <time>2019-07-24T17:33:44Z</time>
      </trkpt>
      <trkpt lat="46.01201" lon="4.6807">
        <ele>237.149643</ele>
        <time>2019-07-24T17:33:57Z</time>
      </trkpt>
      <trkpt lat="46.01197" lon="4.68037">
        <ele>235.948105</ele>
        <time>2019-07-24T17:34:10Z</time>
      </trkpt>
      <trkpt lat="46.0119" lon="4.67943">
        <ele>233.864014</ele>
        <time>2019-07-24T17:34:19Z</time>
      </trkpt>
      <trkpt lat="46.01178" lon="4.67861">
        <ele>234.151596</ele>
        <time>2019-07-24T17:34:53Z</time>
      </trkpt>
      <trkpt lat="46.0117" lon="4.67825">
        <ele>235.032501</ele>
        <time>2019-07-24T17:35:00Z</time>
      </trkpt>
      <trkpt lat="46.01138" lon="4.67711">
        <ele>239.645218</ele>
        <time>2019-07-24T17:35:03Z</time>
      </trkpt>
      <trkpt lat="46.01132" lon="4.67693">
        <ele>240.934998</ele>
        <time>2019-07-24T17:35:06Z</time>
      </trkpt>
      <trkpt lat="46.01128" lon="4.67686">
        <ele>241.604568</ele>
        <time>2019-07-24T17:35:10Z</time>
      </trkpt>
      <trkpt lat="46.01122" lon="4.67682">
        <ele>242.236755</ele>
        <time>2019-07-24T17:35:50Z</time>
      </trkpt>
      <trkpt lat="46.01114" lon="4.67683">
        <ele>242.803513</ele>
        <time>2019-07-24T17:35:53Z</time>
      </trkpt>
      <trkpt lat="46.01025" lon="4.67734">
        <ele>247.956497</ele>
        <time>2019-07-24T17:35:59Z</time>
      </trkpt>
      <trkpt lat="46.01019" lon="4.6774">
        <ele>248.304398</ele>
        <time>2019-07-24T17:36:05Z</time>
      </trkpt>
      <trkpt lat="46.01006" lon="4.67759">
        <ele>248.888596</ele>
        <time>2019-07-24T17:36:08Z</time>
      </trkpt>
      <trkpt lat="46.00994" lon="4.6777">
        <ele>249.418625</ele>
        <time>2019-07-24T17:36:14Z</time>
      </trkpt>
      <trkpt lat="46.00987" lon="4.67772">
        <ele>249.903168</ele>
        <time>2019-07-24T17:36:20Z</time>
      </trkpt>
      <trkpt lat="46.0097" lon="4.67774">
        <ele>251.264145</ele>
        <time>2019-07-24T17:36:23Z</time>
      </trkpt>
      <trkpt lat="46.00951" lon="4.67773">
        <ele>252.677795</ele>
        <time>2019-07-24T17:36:30Z</time>
      </trkpt>
      <trkpt lat="46.00948" lon="4.67768">
        <ele>253.059677</ele>
        <time>2019-07-24T17:36:38Z</time>
      </trkpt>
      <trkpt lat="46.00945" lon="4.67751">
        <ele>253.701065</ele>
        <time>2019-07-24T17:37:15Z</time>
      </trkpt>
      <trkpt lat="46.00947" lon="4.67725">
        <ele>254.312744</ele>
        <time>2019-07-24T17:37:21Z</time>
      </trkpt>
      <trkpt lat="46.00943" lon="4.67606">
        <ele>255.257568</ele>
        <time>2019-07-24T17:37:27Z</time>
      </trkpt>
      <trkpt lat="46.00938" lon="4.6758">
        <ele>255.547195</ele>
        <time>2019-07-24T17:37:33Z</time>
      </trkpt>
      <trkpt lat="46.0093" lon="4.67562">
        <ele>255.892624</ele>
        <time>2019-07-24T17:37:38Z</time>
      </trkpt>
      <trkpt lat="46.00922" lon="4.67547">
        <ele>256.404694</ele>
        <time>2019-07-24T17:37:42Z</time>
      </trkpt>
      <trkpt lat="46.00913" lon="4.67536">
        <ele>257.006256</ele>
        <time>2019-07-24T17:37:47Z</time>
      </trkpt>
      <trkpt lat="46.00902" lon="4.67527">
        <ele>257.621246</ele>
        <time>2019-07-24T17:38:14Z</time>
      </trkpt>
      <trkpt lat="46.0089" lon="4.67527">
        <ele>258.158752</ele>
        <time>2019-07-24T17:38:16Z</time>
      </trkpt>
      <trkpt lat="46.0083" lon="4.67562">
        <ele>261.17627</ele>
        <time>2019-07-24T17:38:18Z</time>
      </trkpt>
      <trkpt lat="46.00825" lon="4.67562">
        <ele>261.359985</ele>
        <time>2019-07-24T17:38:21Z</time>
      </trkpt>
      <trkpt lat="46.00821" lon="4.6756">
        <ele>261.484985</ele>
        <time>2019-07-24T17:38:34Z</time>
      </trkpt>
      <trkpt lat="46.00816" lon="4.67549">
        <ele>261.758759</ele>
        <time>2019-07-24T17:38:39Z</time>
      </trkpt>
      <trkpt lat="46.00803" lon="4.67505">
        <ele>262.408752</ele>
        <time>2019-07-24T17:38:41Z</time>
      </trkpt>
      <trkpt lat="46.00795" lon="4.67488">
        <ele>262.346252</ele>
        <time>2019-07-24T17:38:45Z</time>
      </trkpt>
      <trkpt lat="46.0079" lon="4.67482">
        <ele>262.363739</ele>
        <time>2019-07-24T17:39:15Z</time>
      </trkpt>
      <trkpt lat="46.00777" lon="4.67476">
        <ele>262.504211</ele>
        <time>2019-07-24T17:39:18Z</time>
      </trkpt>
      <trkpt lat="46.00689" lon="4.67481">
        <ele>263.057343</ele>
        <time>2019-07-24T17:39:21Z</time>
      </trkpt>
      <trkpt lat="46.00681" lon="4.67477">
        <ele>263.163391</ele>
        <time>2019-07-24T17:39:41Z</time>
      </trkpt>
      <trkpt lat="46.00675" lon="4.67466">
        <ele>263.30014</ele>
        <time>2019-07-24T17:39:43Z</time>
      </trkpt>
      <trkpt lat="46.00658" lon="4.67362">
        <ele>264.287506</ele>
        <time>2019-07-24T17:39:45Z</time>
      </trkpt>
      <trkpt lat="46.00653" lon="4.67358">
        <ele>264.346252</ele>
        <time>2019-07-24T17:39:49Z</time>
      </trkpt>
      <trkpt lat="46.00647" lon="4.67356">
        <ele>264.320801</ele>
        <time>2019-07-24T17:39:59Z</time>
      </trkpt>
      <trkpt lat="46.00632" lon="4.67358">
        <ele>264.182861</ele>
        <time>2019-07-24T17:40:11Z</time>
      </trkpt>
      <trkpt lat="46.00586" lon="4.67369">
        <ele>263.601532</ele>
        <time>2019-07-24T17:40:13Z</time>
      </trkpt>
      <trkpt lat="46.00522" lon="4.67378">
        <ele>262.048737</ele>
        <time>2019-07-24T17:40:17Z</time>
      </trkpt>
      <trkpt lat="46.00512" lon="4.67378">
        <ele>261.836243</ele>
        <time>2019-07-24T17:40:36Z</time>
      </trkpt>
      <trkpt lat="46.00491" lon="4.67383">
        <ele>261.287506</ele>
        <time>2019-07-24T17:41:06Z</time>
      </trkpt>
      <trkpt lat="46.00427" lon="4.67388">
        <ele>260.455505</ele>
        <time>2019-07-24T17:41:09Z</time>
      </trkpt>
      <trkpt lat="46.00352" lon="4.67372">
        <ele>260.973267</ele>
        <time>2019-07-24T17:41:14Z</time>
      </trkpt>
      <trkpt lat="46.00348" lon="4.67381">
        <ele>260.948547</ele>
        <time>2019-07-24T17:41:36Z</time>
      </trkpt>
      <trkpt lat="46.00344" lon="4.67393">
        <ele>260.928894</ele>
        <time>2019-07-24T17:41:52Z</time>
      </trkpt>
      <trkpt lat="46.00341" lon="4.67414">
        <ele>260.908112</ele>
        <time>2019-07-24T17:42:05Z</time>
      </trkpt>
      <trkpt lat="46.00324" lon="4.67502">
        <ele>258.216248</ele>
        <time>2019-07-24T17:42:40Z</time>
      </trkpt>
      <trkpt lat="46.00311" lon="4.6755">
        <ele>256.704987</ele>
        <time>2019-07-24T17:42:41Z</time>
      </trkpt>
      <trkpt lat="46.00269" lon="4.67758">
        <ele>250.679993</ele>
        <time>2019-07-24T17:42:43Z</time>
      </trkpt>
      <trkpt lat="46.00267" lon="4.67761">
        <ele>250.520004</ele>
        <time>2019-07-24T17:42:47Z</time>
      </trkpt>
      <trkpt lat="46.00262" lon="4.67763">
        <ele>250.080002</ele>
        <time>2019-07-24T17:42:50Z</time>
      </trkpt>
      <trkpt lat="46.00247" lon="4.67758">
        <ele>248.759995</ele>
        <time>2019-07-24T17:42:55Z</time>
      </trkpt>
      <trkpt lat="46.00236" lon="4.67749">
        <ele>247.298553</ele>
        <time>2019-07-24T17:42:59Z</time>
      </trkpt>
      <trkpt lat="46.00221" lon="4.67726">
        <ele>243.465881</ele>
        <time>2019-07-24T17:43:02Z</time>
      </trkpt>
      <trkpt lat="46.00212" lon="4.67708">
        <ele>241.641495</ele>
        <time>2019-07-24T17:43:20Z</time>
      </trkpt>
      <trkpt lat="46.00209" lon="4.67694">
        <ele>241.263809</ele>
        <time>2019-07-24T17:43:30Z</time>
      </trkpt>
      <trkpt lat="46.00197" lon="4.67594">
        <ele>238.434998</ele>
        <time>2019-07-24T17:43:36Z</time>
      </trkpt>
      <trkpt lat="46.00187" lon="4.6753">
        <ele>236.44838</ele>
        <time>2019-07-24T17:43:39Z</time>
      </trkpt>
      <trkpt lat="46.00179" lon="4.67497">
        <ele>234.800201</ele>
        <time>2019-07-24T17:43:41Z</time>
      </trkpt>
      <trkpt lat="46.00171" lon="4.67482">
        <ele>233.420105</ele>
        <time>2019-07-24T17:43:44Z</time>
      </trkpt>
      <trkpt lat="46.00163" lon="4.67474">
        <ele>231.897659</ele>
        <time>2019-07-24T17:43:46Z</time>
      </trkpt>
      <trkpt lat="46.00149" lon="4.67466">
        <ele>230</ele>
        <time>2019-07-24T17:43:48Z</time>
      </trkpt>
      <trkpt lat="46.00141" lon="4.67464">
        <ele>229.242493</ele>
        <time>2019-07-24T17:43:50Z</time>
      </trkpt>
      <trkpt lat="46.00137" lon="4.67464">
        <ele>228.664993</ele>
        <time>2019-07-24T17:43:54Z</time>
      </trkpt>
      <trkpt lat="46.00133" lon="4.67468">
        <ele>228.122498</ele>
        <time>2019-07-24T17:44:03Z</time>
      </trkpt>
      <trkpt lat="46.00129" lon="4.67487">
        <ele>227.164993</ele>
        <time>2019-07-24T17:44:11Z</time>
      </trkpt>
      <trkpt lat="46.00124" lon="4.6755">
        <ele>225.787506</ele>
        <time>2019-07-24T17:44:20Z</time>
      </trkpt>
      <trkpt lat="46.00118" lon="4.67616">
        <ele>225.214996</ele>
        <time>2019-07-24T17:44:33Z</time>
      </trkpt>
      <trkpt lat="46.00114" lon="4.6767">
        <ele>224.175003</ele>
        <time>2019-07-24T17:44:37Z</time>
      </trkpt>
      <trkpt lat="46.00119" lon="4.67729">
        <ele>224.4</ele>
      </trkpt>
      <trkpt lat="46.00129" lon="4.67754">
        <ele>224.8</ele>
      </trkpt>
      <trkpt lat="46.00133" lon="4.67815">
        <ele>225.874573</ele>
        <time>2019-07-24T17:44:42Z</time>
      </trkpt>
      <trkpt lat="46.00131" lon="4.67838">
        <ele>225.939682</ele>
        <time>2019-07-24T17:44:47Z</time>
      </trkpt>
      <trkpt lat="46.00128" lon="4.6788">
        <ele>225.220001</ele>
        <time>2019-07-24T17:44:53Z</time>
      </trkpt>
      <trkpt lat="46.00124" lon="4.67912">
        <ele>223.3</ele>
      </trkpt>
      <trkpt lat="46.00123" lon="4.67934">
        <ele>223.964996</ele>
        <time>2019-07-24T17:44:56Z</time>
      </trkpt>
      <trkpt lat="46.00123" lon="4.67974">
        <ele>222.883743</ele>
        <time>2019-07-24T17:45:00Z</time>
      </trkpt>
      <trkpt lat="46.00127" lon="4.6803">
        <ele>222.639954</ele>
        <time>2019-07-24T17:45:20Z</time>
      </trkpt>
      <trkpt lat="46.00134" lon="4.68062">
        <ele>223.321365</ele>
        <time>2019-07-24T17:45:48Z</time>
      </trkpt>
      <trkpt lat="46.00159" lon="4.68184">
        <ele>224.85376</ele>
        <time>2019-07-24T17:45:53Z</time>
      </trkpt>
      <trkpt lat="46.002" lon="4.68341">
        <ele>229.718872</ele>
        <time>2019-07-24T17:46:01Z</time>
      </trkpt>
      <trkpt lat="46.00205" lon="4.68358">
        <ele>230.422882</ele>
        <time>2019-07-24T17:46:06Z</time>
      </trkpt>
      <trkpt lat="46.00197" lon="4.68379">
        <ele>230.824692</ele>
        <time>2019-07-24T17:46:22Z</time>
      </trkpt>
      <trkpt lat="46.00192" lon="4.68391">
        <ele>230.724792</ele>
        <time>2019-07-24T17:46:28Z</time>
      </trkpt>
      <trkpt lat="46.0015" lon="4.68502">
        <ele>225.063278</ele>
        <time>2019-07-24T17:46:33Z</time>
      </trkpt>
      <trkpt lat="46.00133" lon="4.68568">
        <ele>223.844467</ele>
        <time>2019-07-24T17:46:35Z</time>
      </trkpt>
      <trkpt lat="46.00113" lon="4.68626">
        <ele>220.15625</ele>
        <time>2019-07-24T17:46:38Z</time>
      </trkpt>
      <trkpt lat="46.00103" lon="4.68648">
        <ele>218.128754</ele>
        <time>2019-07-24T17:46:40Z</time>
      </trkpt>
      <trkpt lat="46.00085" lon="4.68681">
        <ele>215.638916</ele>
        <time>2019-07-24T17:46:42Z</time>
      </trkpt>
      <trkpt lat="46.00075" lon="4.68705">
        <ele>215.122482</ele>
        <time>2019-07-24T17:46:44Z</time>
      </trkpt>
      <trkpt lat="46.00066" lon="4.68731">
        <ele>215.352615</ele>
        <time>2019-07-24T17:46:50Z</time>
      </trkpt>
      <trkpt lat="46.00059" lon="4.68757">
        <ele>215.639938</ele>
        <time>2019-07-24T17:46:53Z</time>
      </trkpt>
      <trkpt lat="46.00045" lon="4.68832">
        <ele>213.901733</ele>
        <time>2019-07-24T17:47:05Z</time>
      </trkpt>
      <trkpt lat="46.00039" lon="4.68867">
        <ele>211.977875</ele>
        <time>2019-07-24T17:47:08Z</time>
      </trkpt>
      <trkpt lat="46.00031" lon="4.69006">
        <ele>207.305664</ele>
        <time>2019-07-24T17:47:10Z</time>
      </trkpt>
      <trkpt lat="46.00029" lon="4.69035">
        <ele>206.830002</ele>
        <time>2019-07-24T17:47:24Z</time>
      </trkpt>
      <trkpt lat="46.00028" lon="4.69058">
        <ele>208.2</ele>
      </trkpt>
      <trkpt lat="46.00029" lon="4.69073">
        <ele>206.497498</ele>
        <time>2019-07-24T17:47:32Z</time>
      </trkpt>
      <trkpt lat="46.00039" lon="4.69203">
        <ele>207.977493</ele>
        <time>2019-07-24T17:47:37Z</time>
      </trkpt>
      <trkpt lat="46.0004" lon="4.69231">
        <ele>208.7</ele>
      </trkpt>
      <trkpt lat="46.00041" lon="4.69288">
        <ele>209.516983</ele>
        <time>2019-07-24T17:47:44Z</time>
      </trkpt>
      <trkpt lat="46.00043" lon="4.69332">
        <ele>208.873596</ele>
        <time>2019-07-24T17:47:47Z</time>
      </trkpt>
      <trkpt lat="46.00038" lon="4.69386">
        <ele>206.687149</ele>
        <time>2019-07-24T17:47:52Z</time>
      </trkpt>
      <trkpt lat="46.00042" lon="4.69427">
        <ele>206.002518</ele>
        <time>2019-07-24T17:47:53Z</time>
      </trkpt>
      <trkpt lat="46.00045" lon="4.69466">
        <ele>205.075882</ele>
        <time>2019-07-24T17:47:55Z</time>
      </trkpt>
      <trkpt lat="46.00046" lon="4.69483">
        <ele>204.762497</ele>
        <time>2019-07-24T17:48:00Z</time>
      </trkpt>
      <trkpt lat="46.00047" lon="4.69497">
        <ele>204.017502</ele>
        <time>2019-07-24T17:48:06Z</time>
      </trkpt>
      <trkpt lat="46.00026" lon="4.69556">
        <ele>202.183701</ele>
        <time>2019-07-24T17:48:09Z</time>
      </trkpt>
      <trkpt lat="46.00016" lon="4.69583">
        <ele>205.2</ele>
      </trkpt>
      <trkpt lat="46.0001" lon="4.69615">
        <ele>201.962494</ele>
        <time>2019-07-24T17:48:14Z</time>
      </trkpt>
      <trkpt lat="46.00004" lon="4.69644">
        <ele>201.514999</ele>
        <time>2019-07-24T17:48:19Z</time>
      </trkpt>
      <trkpt lat="45.99997" lon="4.69694">
        <ele>201</ele>
        <time>2019-07-24T17:48:23Z</time>
      </trkpt>
      <trkpt lat="45.99997" lon="4.69746">
        <ele>200.923752</ele>
        <time>2019-07-24T17:48:28Z</time>
      </trkpt>
      <trkpt lat="45.99998" lon="4.69777">
        <ele>200.278748</ele>
        <time>2019-07-24T17:48:40Z</time>
      </trkpt>
      <trkpt lat="45.99998" lon="4.69796">
        <ele>202.4</ele>
      </trkpt>
      <trkpt lat="46.00003" lon="4.6984">
        <ele>200</ele>
        <time>2019-07-24T17:48:49Z</time>
      </trkpt>
      <trkpt lat="46.00012" lon="4.69942">
        <ele>200.205704</ele>
        <time>2019-07-24T17:48:58Z</time>
      </trkpt>
      <trkpt lat="46.00012" lon="4.69952">
        <ele>201.9</ele>
      </trkpt>
      <trkpt lat="46.00019" lon="4.7003">
        <ele>200.440002</ele>
        <time>2019-07-24T17:49:09Z</time>
      </trkpt>
      <trkpt lat="46.00023" lon="4.70061">
        <ele>201</ele>
      </trkpt>
      <trkpt lat="46.00028" lon="4.70125">
        <ele>199.085007</ele>
        <time>2019-07-24T17:49:13Z</time>
      </trkpt>
      <trkpt lat="46.00031" lon="4.70211">
        <ele>198</ele>
        <time>2019-07-24T17:49:31Z</time>
      </trkpt>
      <trkpt lat="46.00038" lon="4.70257">
        <ele>199.2</ele>
      </trkpt>
      <trkpt lat="46.00039" lon="4.70266">
        <ele>197.934998</ele>
        <time>2019-07-24T17:49:36Z</time>
      </trkpt>
      <trkpt lat="46.00053" lon="4.70345">
        <ele>199</ele>
      </trkpt>
      <trkpt lat="46.00064" lon="4.70423">
        <ele>196.494995</ele>
        <time>2019-07-24T17:49:39Z</time>
      </trkpt>
      <trkpt lat="46.0007" lon="4.70467">
        <ele>196</ele>
        <time>2019-07-24T17:49:41Z</time>
      </trkpt>
      <trkpt lat="46.00071" lon="4.7047">
        <ele>198</ele>
      </trkpt>
      <trkpt lat="46.00082" lon="4.70498">
        <ele>196</ele>
        <time>2019-07-24T17:49:43Z</time>
      </trkpt>
      <trkpt lat="46.00089" lon="4.70506">
        <ele>196</ele>
        <time>2019-07-24T17:49:45Z</time>
      </trkpt>
      <trkpt lat="46.00099" lon="4.70515">
        <ele>196</ele>
        <time>2019-07-24T17:49:49Z</time>
      </trkpt>
      <trkpt lat="46.00103" lon="4.70517">
        <ele>196</ele>
        <time>2019-07-24T17:49:51Z</time>
      </trkpt>
      <trkpt lat="46.00129" lon="4.70522">
        <ele>196</ele>
        <time>2019-07-24T17:49:52Z</time>
      </trkpt>
      <trkpt lat="46.00131" lon="4.70545">
        <ele>196</ele>
        <time>2019-07-24T17:49:54Z</time>
      </trkpt>
      <trkpt lat="46.00132" lon="4.70553">
        <ele>196</ele>
        <time>2019-07-24T17:49:56Z</time>
      </trkpt>
      <trkpt lat="46.00134" lon="4.70557">
        <ele>196</ele>
        <time>2019-07-24T17:50:04Z</time>
      </trkpt>
      <trkpt lat="46.00122" lon="4.70567">
        <ele>198</ele>
      </trkpt>
      <trkpt lat="46.00102" lon="4.70583">
        <ele>196</ele>
        <time>2019-07-24T17:50:07Z</time>
      </trkpt>
      <trkpt lat="46.00079" lon="4.70596">
        <ele>195.86795</ele>
        <time>2019-07-24T17:50:29Z</time>
      </trkpt>
      <trkpt lat="46.00062" lon="4.70602">
        <ele>195.887924</ele>
        <time>2019-07-24T17:50:37Z</time>
      </trkpt>
      <trkpt lat="45.99951" lon="4.70629">
        <ele>198.263138</ele>
        <time>2019-07-24T17:50:48Z</time>
      </trkpt>
      <trkpt lat="45.99929" lon="4.70633">
        <ele>198</ele>
      </trkpt>
      <trkpt lat="45.99877" lon="4.70646">
        <ele>199.312225</ele>
        <time>2019-07-24T17:51:18Z</time>
      </trkpt>
      <trkpt lat="45.99867" lon="4.70646">
        <ele>198</ele>
      </trkpt>
      <trkpt lat="45.99859" lon="4.70648">
        <ele>198.1</ele>
      </trkpt>
      <trkpt lat="45.99833" lon="4.70649">
        <ele>200</ele>
        <time>2019-07-24T17:51:23Z</time>
      </trkpt>
      <trkpt lat="45.99702" lon="4.70676">
        <ele>201</ele>
        <time>2019-07-24T17:51:51Z</time>
      </trkpt>
      <trkpt lat="45.99679" lon="4.70683">
        <ele>200.936905</ele>
        <time>2019-07-24T17:51:58Z</time>
      </trkpt>
      <trkpt lat="45.9953" lon="4.70712">
        <ele>198.288757</ele>
        <time>2019-07-24T17:52:03Z</time>
      </trkpt>
      <trkpt lat="45.99488" lon="4.70723">
        <ele>197.460007</ele>
        <time>2019-07-24T17:52:10Z</time>
      </trkpt>
      <trkpt lat="45.99458" lon="4.70724">
        <ele>197.421249</ele>
        <time>2019-07-24T17:52:30Z</time>
      </trkpt>
      <trkpt lat="45.99416" lon="4.7072">
        <ele>197.453751</ele>
        <time>2019-07-24T17:52:50Z</time>
      </trkpt>
      <trkpt lat="45.99301" lon="4.70719">
        <ele>197.120346</ele>
        <time>2019-07-24T17:52:53Z</time>
      </trkpt>
      <trkpt lat="45.99186" lon="4.70714">
        <ele>195.781021</ele>
        <time>2019-07-24T17:52:59Z</time>
      </trkpt>
      <trkpt lat="45.99169" lon="4.70715">
        <ele>195.17717</ele>
        <time>2019-07-24T17:53:12Z</time>
      </trkpt>
      <trkpt lat="45.99134" lon="4.70711">
        <ele>194.134689</ele>
        <time>2019-07-24T17:53:20Z</time>
      </trkpt>
      <trkpt lat="45.9905" lon="4.70704">
        <ele>191.332504</ele>
        <time>2019-07-24T17:53:23Z</time>
      </trkpt>
      <trkpt lat="45.99008" lon="4.70708">
        <ele>189.404999</ele>
        <time>2019-07-24T17:53:25Z</time>
      </trkpt>
      <trkpt lat="45.9899" lon="4.70714">
        <ele>188.117508</ele>
        <time>2019-07-24T17:53:27Z</time>
      </trkpt>
      <trkpt lat="45.98978" lon="4.70723">
        <ele>187.165009</ele>
        <time>2019-07-24T17:53:30Z</time>
      </trkpt>
      <trkpt lat="45.98966" lon="4.70737">
        <ele>186.265518</ele>
        <time>2019-07-24T17:53:37Z</time>
      </trkpt>
      <trkpt lat="45.9895" lon="4.70761">
        <ele>185.643295</ele>
        <time>2019-07-24T17:53:41Z</time>
      </trkpt>
      <trkpt lat="45.98919" lon="4.70824">
        <ele>183.693756</ele>
        <time>2019-07-24T17:53:53Z</time>
      </trkpt>
      <trkpt lat="45.98904" lon="4.70847">
        <ele>183.112381</ele>
        <time>2019-07-24T17:53:58Z</time>
      </trkpt>
      <trkpt lat="45.98861" lon="4.70931">
        <ele>181.973724</ele>
        <time>2019-07-24T17:54:20Z</time>
      </trkpt>
      <trkpt lat="45.98846" lon="4.70971">
        <ele>181.622772</ele>
        <time>2019-07-24T17:54:35Z</time>
      </trkpt>
      <trkpt lat="45.98793" lon="4.71147">
        <ele>181.311401</ele>
        <time>2019-07-24T17:54:38Z</time>
      </trkpt>
      <trkpt lat="45.98759" lon="4.71265">
        <ele>182.25</ele>
        <time>2019-07-24T17:54:45Z</time>
      </trkpt>
      <trkpt lat="45.9875" lon="4.71285">
        <ele>182.440002</ele>
        <time>2019-07-24T17:54:48Z</time>
      </trkpt>
      <trkpt lat="45.98733" lon="4.71338">
        <ele>182.800003</ele>
        <time>2019-07-24T17:54:59Z</time>
      </trkpt>
      <trkpt lat="45.98724" lon="4.71359">
        <ele>182.990005</ele>
        <time>2019-07-24T17:55:01Z</time>
      </trkpt>
      <trkpt lat="45.98704" lon="4.71437">
        <ele>183.399994</ele>
        <time>2019-07-24T17:55:04Z</time>
      </trkpt>
      <trkpt lat="45.98702" lon="4.7145">
        <ele>183.440002</ele>
        <time>2019-07-24T17:55:12Z</time>
      </trkpt>
      <trkpt lat="45.98702" lon="4.71468">
        <ele>183.434998</ele>
        <time>2019-07-24T17:55:15Z</time>
      </trkpt>
      <trkpt lat="45.98708" lon="4.7152">
        <ele>183.270004</ele>
        <time>2019-07-24T17:55:16Z</time>
      </trkpt>
      <trkpt lat="45.98709" lon="4.71547">
        <ele>183.225006</ele>
        <time>2019-07-24T17:55:19Z</time>
      </trkpt>
      <trkpt lat="45.98709" lon="4.71557">
        <ele>183.235001</ele>
        <time>2019-07-24T17:55:24Z</time>
      </trkpt>
      <trkpt lat="45.98709" lon="4.71585">
        <ele>183.205002</ele>
        <time>2019-07-24T17:55:37Z</time>
      </trkpt>
      <trkpt lat="45.98716" lon="4.71629">
        <ele>183.043304</ele>
        <time>2019-07-24T17:55:41Z</time>
      </trkpt>
      <trkpt lat="45.98728" lon="4.71742">
        <ele>181.597504</ele>
        <time>2019-07-24T17:56:10Z</time>
      </trkpt>
      <trkpt lat="45.98729" lon="4.7178">
        <ele>181.330002</ele>
        <time>2019-07-24T17:56:16Z</time>
      </trkpt>
      <trkpt lat="45.98723" lon="4.71997">
        <ele>180.252991</ele>
        <time>2019-07-24T17:56:35Z</time>
      </trkpt>
      <trkpt lat="45.9872" lon="4.7204">
        <ele>180.5</ele>
        <time>2019-07-24T17:56:39Z</time>
      </trkpt>
      <trkpt lat="45.98719" lon="4.72113">
        <ele>181.151245</ele>
        <time>2019-07-24T17:56:48Z</time>
      </trkpt>
      <trkpt lat="45.98715" lon="4.72123">
        <ele>185.3</ele>
      </trkpt>
      <trkpt lat="45.98714" lon="4.72135">
        <ele>181.654999</ele>
        <time>2019-07-24T17:56:59Z</time>
      </trkpt>
      <trkpt lat="45.98706" lon="4.72184">
        <ele>182.462494</ele>
        <time>2019-07-24T17:57:16Z</time>
      </trkpt>
      <trkpt lat="45.98703" lon="4.72224">
        <ele>182.727005</ele>
        <time>2019-07-24T17:57:22Z</time>
      </trkpt>
      <trkpt lat="45.98701" lon="4.72269">
        <ele>182.884995</ele>
        <time>2019-07-24T17:57:24Z</time>
      </trkpt>
      <trkpt lat="45.98685" lon="4.72267">
        <ele>182.824875</ele>
        <time>2019-07-24T17:57:30Z</time>
      </trkpt>
      <trkpt lat="45.9861" lon="4.72281">
        <ele>182.912476</ele>
      </trkpt>
      <trkpt lat="45.98583" lon="4.72286">
        <ele>189</ele>
      </trkpt>
      <trkpt lat="45.98534" lon="4.72188">
        <ele>190</ele>
      </trkpt>
      <trkpt lat="45.98521" lon="4.72175">
        <ele>190</ele>
      </trkpt>
      <trkpt lat="45.98444" lon="4.72159">
        <ele>190</ele>
      </trkpt>
      <trkpt lat="45.98434" lon="4.72168">
        <ele>190</ele>
      </trkpt>
      <trkpt lat="45.9839" lon="4.72268">
        <ele>189.4</ele>
      </trkpt>
      <trkpt lat="45.98272" lon="4.72575">
        <ele>186.2</ele>
      </trkpt>
      <trkpt lat="45.9823" lon="4.72562">
        <ele>185.9</ele>
      </trkpt>
      <trkpt lat="45.98198" lon="4.72562">
        <ele>187.1</ele>
      </trkpt>
      <trkpt lat="45.9813" lon="4.72593">
        <ele>188.9</ele>
      </trkpt>
      <trkpt lat="45.98117" lon="4.72594">
        <ele>188.7</ele>
      </trkpt>
      <trkpt lat="45.98099" lon="4.72689">
        <ele>186.2</ele>
      </trkpt>
      <trkpt lat="45.98052" lon="4.72685">
        <ele>182.838577</ele>
      </trkpt>
    </trkseg>
  </trk>
</gpx>